<?xml version='1.0' encoding='UTF-8'?>
<gpx version="1.1" creator="https://www.komoot.de" xmlns="http://www.topografix.com/GPX/1/1" xmlns:xsi="http://www.w3.org/2001/XMLSchema-instance" xsi:schemaLocation="http://www.topografix.com/GPX/1/1 http://www.topografix.com/GPX/1/1/gpx.xsd">
  <metadata>
    <name>Nord-Ost-Tour</name>
    <author>
      <link href="https://www.komoot.de">
        <text>komoot</text>
        <type>text/html</type>
      </link>
    </author>
  </metadata>
  <trk>
    <name>Nord-Ost-Tour</name>
    <trkseg>
      <trkpt lat="51.741221" lon="7.211411">
        <ele>40.130980</ele>
        <time>2025-08-12T08:22:09.660Z</time>
      </trkpt>
      <trkpt lat="51.741243" lon="7.211220">
        <ele>40.130980</ele>
        <time>2025-08-12T08:22:10.904Z</time>
      </trkpt>
      <trkpt lat="51.741339" lon="7.210299">
        <ele>40.130980</ele>
        <time>2025-08-12T08:22:16.652Z</time>
      </trkpt>
      <trkpt lat="51.741445" lon="7.209310">
        <ele>39.681385</ele>
        <time>2025-08-12T08:22:22.413Z</time>
      </trkpt>
      <trkpt lat="51.741503" lon="7.208772">
        <ele>39.320102</ele>
        <time>2025-08-12T08:22:25.487Z</time>
      </trkpt>
      <trkpt lat="51.741736" lon="7.206606">
        <ele>38.303048</ele>
        <time>2025-08-12T08:22:38.967Z</time>
      </trkpt>
      <trkpt lat="51.741852" lon="7.205516">
        <ele>38.502740</ele>
        <time>2025-08-12T08:22:47.414Z</time>
      </trkpt>
      <trkpt lat="51.741946" lon="7.204629">
        <ele>38.665223</ele>
        <time>2025-08-12T08:22:55.793Z</time>
      </trkpt>
      <trkpt lat="51.742142" lon="7.202584">
        <ele>39.799997</ele>
        <time>2025-08-12T08:23:15.104Z</time>
      </trkpt>
      <trkpt lat="51.742207" lon="7.200934">
        <ele>40.764244</ele>
        <time>2025-08-12T08:23:30.788Z</time>
      </trkpt>
      <trkpt lat="51.742201" lon="7.200480">
        <ele>40.968980</ele>
        <time>2025-08-12T08:23:34.773Z</time>
      </trkpt>
      <trkpt lat="51.742194" lon="7.199977">
        <ele>41.195819</ele>
        <time>2025-08-12T08:23:39.057Z</time>
      </trkpt>
      <trkpt lat="51.742165" lon="7.199525">
        <ele>41.400699</ele>
        <time>2025-08-12T08:23:42.998Z</time>
      </trkpt>
      <trkpt lat="51.742143" lon="7.199170">
        <ele>41.561553</ele>
        <time>2025-08-12T08:23:46.028Z</time>
      </trkpt>
      <trkpt lat="51.742055" lon="7.198476">
        <ele>41.879208</ele>
        <time>2025-08-12T08:23:51.972Z</time>
      </trkpt>
      <trkpt lat="51.741952" lon="7.197912">
        <ele>42.046720</ele>
        <time>2025-08-12T08:23:57.325Z</time>
      </trkpt>
      <trkpt lat="51.741834" lon="7.197401">
        <ele>42.202085</ele>
        <time>2025-08-12T08:24:02.175Z</time>
      </trkpt>
      <trkpt lat="51.741767" lon="7.197138">
        <ele>42.283101</ele>
        <time>2025-08-12T08:24:04.644Z</time>
      </trkpt>
      <trkpt lat="51.741859" lon="7.197105">
        <ele>42.326459</ele>
        <time>2025-08-12T08:24:05.971Z</time>
      </trkpt>
      <trkpt lat="51.742107" lon="7.197016">
        <ele>42.443338</ele>
        <time>2025-08-12T08:24:09.488Z</time>
      </trkpt>
      <trkpt lat="51.742187" lon="7.196999">
        <ele>42.480461</ele>
        <time>2025-08-12T08:24:10.557Z</time>
      </trkpt>
      <trkpt lat="51.742165" lon="7.195727">
        <ele>42.657682</ele>
        <time>2025-08-12T08:24:23.384Z</time>
      </trkpt>
      <trkpt lat="51.742181" lon="7.194992">
        <ele>42.588397</ele>
        <time>2025-08-12T08:24:30.059Z</time>
      </trkpt>
      <trkpt lat="51.742194" lon="7.194890">
        <ele>42.578586</ele>
        <time>2025-08-12T08:24:30.972Z</time>
      </trkpt>
      <trkpt lat="51.742199" lon="7.194845">
        <ele>42.574279</ele>
        <time>2025-08-12T08:24:31.387Z</time>
      </trkpt>
      <trkpt lat="51.742059" lon="7.194595">
        <ele>42.542524</ele>
        <time>2025-08-12T08:24:34.427Z</time>
      </trkpt>
      <trkpt lat="51.742122" lon="7.194504">
        <ele>42.529665</ele>
        <time>2025-08-12T08:24:35.685Z</time>
      </trkpt>
      <trkpt lat="51.742227" lon="7.194375">
        <ele>42.509593</ele>
        <time>2025-08-12T08:24:37.681Z</time>
      </trkpt>
      <trkpt lat="51.742262" lon="7.194144">
        <ele>42.487189</ele>
        <time>2025-08-12T08:24:39.978Z</time>
      </trkpt>
      <trkpt lat="51.742310" lon="7.193824">
        <ele>42.456171</ele>
        <time>2025-08-12T08:24:43.284Z</time>
      </trkpt>
      <trkpt lat="51.742387" lon="7.193376">
        <ele>42.513169</ele>
        <time>2025-08-12T08:24:48.289Z</time>
      </trkpt>
      <trkpt lat="51.742446" lon="7.193020">
        <ele>42.676105</ele>
        <time>2025-08-12T08:24:52.409Z</time>
      </trkpt>
      <trkpt lat="51.742566" lon="7.192275">
        <ele>43.016449</ele>
        <time>2025-08-12T08:25:01.553Z</time>
      </trkpt>
      <trkpt lat="51.742587" lon="7.192137">
        <ele>43.079277</ele>
        <time>2025-08-12T08:25:03.315Z</time>
      </trkpt>
      <trkpt lat="51.742645" lon="7.191774">
        <ele>43.245025</ele>
        <time>2025-08-12T08:25:07.854Z</time>
      </trkpt>
      <trkpt lat="51.742709" lon="7.191415">
        <ele>43.410194</ele>
        <time>2025-08-12T08:25:12.301Z</time>
      </trkpt>
      <trkpt lat="51.742768" lon="7.191051">
        <ele>43.576548</ele>
        <time>2025-08-12T08:25:16.702Z</time>
      </trkpt>
      <trkpt lat="51.742900" lon="7.191077">
        <ele>43.671498</ele>
        <time>2025-08-12T08:25:19.167Z</time>
      </trkpt>
      <trkpt lat="51.743035" lon="7.191113">
        <ele>43.725887</ele>
        <time>2025-08-12T08:25:21.064Z</time>
      </trkpt>
      <trkpt lat="51.743156" lon="7.191143">
        <ele>43.744269</ele>
        <time>2025-08-12T08:25:22.730Z</time>
      </trkpt>
      <trkpt lat="51.743325" lon="7.191178">
        <ele>43.769853</ele>
        <time>2025-08-12T08:25:24.942Z</time>
      </trkpt>
      <trkpt lat="51.743504" lon="7.191211">
        <ele>43.796906</ele>
        <time>2025-08-12T08:25:27.152Z</time>
      </trkpt>
      <trkpt lat="51.743577" lon="7.191253">
        <ele>43.808542</ele>
        <time>2025-08-12T08:25:28.091Z</time>
      </trkpt>
      <trkpt lat="51.743757" lon="7.191449">
        <ele>43.841139</ele>
        <time>2025-08-12T08:25:30.723Z</time>
      </trkpt>
      <trkpt lat="51.743837" lon="7.191543">
        <ele>43.855994</ele>
        <time>2025-08-12T08:25:31.911Z</time>
      </trkpt>
      <trkpt lat="51.744202" lon="7.192302">
        <ele>43.945344</ele>
        <time>2025-08-12T08:25:38.706Z</time>
      </trkpt>
      <trkpt lat="51.744300" lon="7.192588">
        <ele>43.975734</ele>
        <time>2025-08-12T08:25:41.004Z</time>
      </trkpt>
      <trkpt lat="51.744510" lon="7.193202">
        <ele>44.014819</ele>
        <time>2025-08-12T08:25:46.248Z</time>
      </trkpt>
      <trkpt lat="51.744691" lon="7.193765">
        <ele>44.046529</ele>
        <time>2025-08-12T08:25:51.177Z</time>
      </trkpt>
      <trkpt lat="51.744791" lon="7.194083">
        <ele>44.064357</ele>
        <time>2025-08-12T08:25:53.868Z</time>
      </trkpt>
      <trkpt lat="51.745018" lon="7.194783">
        <ele>44.103857</ele>
        <time>2025-08-12T08:25:59.824Z</time>
      </trkpt>
      <trkpt lat="51.745226" lon="7.195299">
        <ele>44.137097</ele>
        <time>2025-08-12T08:26:04.371Z</time>
      </trkpt>
      <trkpt lat="51.745353" lon="7.195602">
        <ele>44.164404</ele>
        <time>2025-08-12T08:26:07.131Z</time>
      </trkpt>
      <trkpt lat="51.745423" lon="7.195756">
        <ele>44.178662</ele>
        <time>2025-08-12T08:26:08.653Z</time>
      </trkpt>
      <trkpt lat="51.745727" lon="7.196434">
        <ele>44.241138</ele>
        <time>2025-08-12T08:26:14.963Z</time>
      </trkpt>
      <trkpt lat="51.746993" lon="7.198478">
        <ele>44.267721</ele>
        <time>2025-08-12T08:26:37.023Z</time>
      </trkpt>
      <trkpt lat="51.747253" lon="7.198865">
        <ele>44.237348</ele>
        <time>2025-08-12T08:26:41.090Z</time>
      </trkpt>
      <trkpt lat="51.747472" lon="7.199175">
        <ele>44.212333</ele>
        <time>2025-08-12T08:26:44.256Z</time>
      </trkpt>
      <trkpt lat="51.747625" lon="7.199409">
        <ele>44.194232</ele>
        <time>2025-08-12T08:26:46.544Z</time>
      </trkpt>
      <trkpt lat="51.747545" lon="7.199579">
        <ele>44.169409</ele>
        <time>2025-08-12T08:26:48.536Z</time>
      </trkpt>
      <trkpt lat="51.747210" lon="7.200555">
        <ele>44.021827</ele>
        <time>2025-08-12T08:26:58.722Z</time>
      </trkpt>
      <trkpt lat="51.747142" lon="7.200751">
        <ele>43.992114</ele>
        <time>2025-08-12T08:27:00.776Z</time>
      </trkpt>
      <trkpt lat="51.747003" lon="7.201124">
        <ele>43.934539</ele>
        <time>2025-08-12T08:27:04.776Z</time>
      </trkpt>
      <trkpt lat="51.747214" lon="7.201264">
        <ele>43.885814</ele>
        <time>2025-08-12T08:27:07.325Z</time>
      </trkpt>
      <trkpt lat="51.747715" lon="7.201394">
        <ele>43.908954</ele>
        <time>2025-08-12T08:27:13.902Z</time>
      </trkpt>
      <trkpt lat="51.748453" lon="7.202050">
        <ele>44.509751</ele>
        <time>2025-08-12T08:27:26.103Z</time>
      </trkpt>
      <trkpt lat="51.748647" lon="7.202328">
        <ele>44.694720</ele>
        <time>2025-08-12T08:27:29.909Z</time>
      </trkpt>
      <trkpt lat="51.748732" lon="7.202360">
        <ele>44.756968</ele>
        <time>2025-08-12T08:27:31.215Z</time>
      </trkpt>
      <trkpt lat="51.748880" lon="7.202452">
        <ele>44.870071</ele>
        <time>2025-08-12T08:27:33.524Z</time>
      </trkpt>
      <trkpt lat="51.748968" lon="7.202531">
        <ele>44.941877</ele>
        <time>2025-08-12T08:27:34.953Z</time>
      </trkpt>
      <trkpt lat="51.749200" lon="7.202842">
        <ele>45.169983</ele>
        <time>2025-08-12T08:27:39.303Z</time>
      </trkpt>
      <trkpt lat="51.749726" lon="7.203652">
        <ele>45.790482</ele>
        <time>2025-08-12T08:27:49.693Z</time>
      </trkpt>
      <trkpt lat="51.749926" lon="7.203904">
        <ele>46.007053</ele>
        <time>2025-08-12T08:27:53.411Z</time>
      </trkpt>
      <trkpt lat="51.751884" lon="7.205492">
        <ele>47.111689</ele>
        <time>2025-08-12T08:28:25.717Z</time>
      </trkpt>
      <trkpt lat="51.752635" lon="7.206312">
        <ele>46.302758</ele>
        <time>2025-08-12T08:28:34.140Z</time>
      </trkpt>
      <trkpt lat="51.752933" lon="7.206533">
        <ele>45.777240</ele>
        <time>2025-08-12T08:28:36.915Z</time>
      </trkpt>
      <trkpt lat="51.753317" lon="7.206693">
        <ele>45.141678</ele>
        <time>2025-08-12T08:28:40.391Z</time>
      </trkpt>
      <trkpt lat="51.753385" lon="7.206851">
        <ele>44.950762</ele>
        <time>2025-08-12T08:28:41.476Z</time>
      </trkpt>
      <trkpt lat="51.753513" lon="7.207386">
        <ele>44.381716</ele>
        <time>2025-08-12T08:28:44.747Z</time>
      </trkpt>
      <trkpt lat="51.753649" lon="7.207741">
        <ele>44.191039</ele>
        <time>2025-08-12T08:28:47.201Z</time>
      </trkpt>
      <trkpt lat="51.753846" lon="7.208063">
        <ele>44.011887</ele>
        <time>2025-08-12T08:28:49.827Z</time>
      </trkpt>
      <trkpt lat="51.753976" lon="7.208176">
        <ele>43.917518</ele>
        <time>2025-08-12T08:28:51.214Z</time>
      </trkpt>
      <trkpt lat="51.753742" lon="7.208934">
        <ele>43.582333</ele>
        <time>2025-08-12T08:28:58.840Z</time>
      </trkpt>
      <trkpt lat="51.753673" lon="7.209152">
        <ele>43.485444</ele>
        <time>2025-08-12T08:29:01.379Z</time>
      </trkpt>
      <trkpt lat="51.753664" lon="7.209181">
        <ele>43.472606</ele>
        <time>2025-08-12T08:29:01.722Z</time>
      </trkpt>
      <trkpt lat="51.753565" lon="7.209501">
        <ele>43.331042</ele>
        <time>2025-08-12T08:29:05.542Z</time>
      </trkpt>
      <trkpt lat="51.753513" lon="7.209668">
        <ele>43.257067</ele>
        <time>2025-08-12T08:29:07.448Z</time>
      </trkpt>
      <trkpt lat="51.753458" lon="7.209848">
        <ele>43.192054</ele>
        <time>2025-08-12T08:29:09.500Z</time>
      </trkpt>
      <trkpt lat="51.753243" lon="7.210544">
        <ele>43.256191</ele>
        <time>2025-08-12T08:29:17.341Z</time>
      </trkpt>
      <trkpt lat="51.753160" lon="7.210814">
        <ele>43.281048</ele>
        <time>2025-08-12T08:29:19.582Z</time>
      </trkpt>
      <trkpt lat="51.753103" lon="7.211013">
        <ele>43.299128</ele>
        <time>2025-08-12T08:29:21.232Z</time>
      </trkpt>
      <trkpt lat="51.753760" lon="7.212334">
        <ele>43.450437</ele>
        <time>2025-08-12T08:29:34.212Z</time>
      </trkpt>
      <trkpt lat="51.754928" lon="7.213585">
        <ele>43.859848</ele>
        <time>2025-08-12T08:29:51.897Z</time>
      </trkpt>
      <trkpt lat="51.755749" lon="7.213573">
        <ele>44.029920</ele>
        <time>2025-08-12T08:30:02.909Z</time>
      </trkpt>
      <trkpt lat="51.755959" lon="7.213662">
        <ele>44.062841</ele>
        <time>2025-08-12T08:30:05.596Z</time>
      </trkpt>
      <trkpt lat="51.756396" lon="7.214068">
        <ele>44.139284</ele>
        <time>2025-08-12T08:30:11.603Z</time>
      </trkpt>
      <trkpt lat="51.756880" lon="7.214702">
        <ele>44.244630</ele>
        <time>2025-08-12T08:30:18.978Z</time>
      </trkpt>
      <trkpt lat="51.756987" lon="7.214945">
        <ele>44.319919</ele>
        <time>2025-08-12T08:30:21.212Z</time>
      </trkpt>
      <trkpt lat="51.756997" lon="7.214968">
        <ele>44.327015</ele>
        <time>2025-08-12T08:30:21.426Z</time>
      </trkpt>
      <trkpt lat="51.757191" lon="7.215573">
        <ele>44.499036</ele>
        <time>2025-08-12T08:30:26.675Z</time>
      </trkpt>
      <trkpt lat="51.757248" lon="7.215679">
        <ele>44.534485</ele>
        <time>2025-08-12T08:30:27.805Z</time>
      </trkpt>
      <trkpt lat="51.757440" lon="7.215865">
        <ele>44.625796</ele>
        <time>2025-08-12T08:30:30.792Z</time>
      </trkpt>
      <trkpt lat="51.757827" lon="7.216145">
        <ele>44.798746</ele>
        <time>2025-08-12T08:30:36.782Z</time>
      </trkpt>
      <trkpt lat="51.757951" lon="7.216303">
        <ele>44.863158</ele>
        <time>2025-08-12T08:30:39.083Z</time>
      </trkpt>
      <trkpt lat="51.758603" lon="7.217575">
        <ele>45.075647</ele>
        <time>2025-08-12T08:30:52.874Z</time>
      </trkpt>
      <trkpt lat="51.758907" lon="7.218104">
        <ele>45.141139</ele>
        <time>2025-08-12T08:30:58.192Z</time>
      </trkpt>
      <trkpt lat="51.759018" lon="7.218239">
        <ele>45.161505</ele>
        <time>2025-08-12T08:30:59.823Z</time>
      </trkpt>
      <trkpt lat="51.759176" lon="7.218387">
        <ele>45.188276</ele>
        <time>2025-08-12T08:31:01.945Z</time>
      </trkpt>
      <trkpt lat="51.759258" lon="7.218424">
        <ele>45.200755</ele>
        <time>2025-08-12T08:31:02.906Z</time>
      </trkpt>
      <trkpt lat="51.760302" lon="7.218984">
        <ele>44.762574</ele>
        <time>2025-08-12T08:31:14.784Z</time>
      </trkpt>
      <trkpt lat="51.760907" lon="7.219283">
        <ele>44.450747</ele>
        <time>2025-08-12T08:31:21.476Z</time>
      </trkpt>
      <trkpt lat="51.761213" lon="7.219436">
        <ele>44.287673</ele>
        <time>2025-08-12T08:31:24.689Z</time>
      </trkpt>
      <trkpt lat="51.761428" lon="7.219565">
        <ele>44.161641</ele>
        <time>2025-08-12T08:31:26.948Z</time>
      </trkpt>
      <trkpt lat="51.761819" lon="7.219917">
        <ele>43.915674</ele>
        <time>2025-08-12T08:31:31.351Z</time>
      </trkpt>
      <trkpt lat="51.762234" lon="7.220331">
        <ele>43.647653</ele>
        <time>2025-08-12T08:31:36.318Z</time>
      </trkpt>
      <trkpt lat="51.762824" lon="7.220940">
        <ele>43.402697</ele>
        <time>2025-08-12T08:31:44.366Z</time>
      </trkpt>
      <trkpt lat="51.762869" lon="7.220986">
        <ele>43.420571</ele>
        <time>2025-08-12T08:31:45.041Z</time>
      </trkpt>
      <trkpt lat="51.763132" lon="7.221278">
        <ele>43.527681</ele>
        <time>2025-08-12T08:31:49.225Z</time>
      </trkpt>
      <trkpt lat="51.763580" lon="7.222088">
        <ele>43.753352</ele>
        <time>2025-08-12T08:31:58.536Z</time>
      </trkpt>
      <trkpt lat="51.763658" lon="7.222221">
        <ele>43.791415</ele>
        <time>2025-08-12T08:32:00.134Z</time>
      </trkpt>
      <trkpt lat="51.763853" lon="7.222600">
        <ele>43.893802</ele>
        <time>2025-08-12T08:32:04.281Z</time>
      </trkpt>
      <trkpt lat="51.764237" lon="7.223370">
        <ele>44.061303</ele>
        <time>2025-08-12T08:32:11.668Z</time>
      </trkpt>
      <trkpt lat="51.764297" lon="7.223534">
        <ele>44.090585</ele>
        <time>2025-08-12T08:32:13.019Z</time>
      </trkpt>
      <trkpt lat="51.764499" lon="7.224199">
        <ele>44.204446</ele>
        <time>2025-08-12T08:32:18.328Z</time>
      </trkpt>
      <trkpt lat="51.764797" lon="7.224663">
        <ele>44.307226</ele>
        <time>2025-08-12T08:32:23.411Z</time>
      </trkpt>
      <trkpt lat="51.764990" lon="7.224869">
        <ele>44.364672</ele>
        <time>2025-08-12T08:32:26.486Z</time>
      </trkpt>
      <trkpt lat="51.765040" lon="7.225454">
        <ele>44.602653</ele>
        <time>2025-08-12T08:32:31.672Z</time>
      </trkpt>
      <trkpt lat="51.765169" lon="7.226871">
        <ele>45.408554</ele>
        <time>2025-08-12T08:32:45.487Z</time>
      </trkpt>
      <trkpt lat="51.765113" lon="7.226999">
        <ele>45.496756</ele>
        <time>2025-08-12T08:32:47.017Z</time>
      </trkpt>
      <trkpt lat="51.764790" lon="7.228043">
        <ele>46.024841</ele>
        <time>2025-08-12T08:32:57.783Z</time>
      </trkpt>
      <trkpt lat="51.764676" lon="7.228407">
        <ele>46.004288</ele>
        <time>2025-08-12T08:33:01.101Z</time>
      </trkpt>
      <trkpt lat="51.765145" lon="7.229220">
        <ele>45.948293</ele>
        <time>2025-08-12T08:33:09.030Z</time>
      </trkpt>
      <trkpt lat="51.765211" lon="7.229374">
        <ele>45.938856</ele>
        <time>2025-08-12T08:33:10.289Z</time>
      </trkpt>
      <trkpt lat="51.764958" lon="7.229598">
        <ele>45.915371</ele>
        <time>2025-08-12T08:33:13.375Z</time>
      </trkpt>
      <trkpt lat="51.764613" lon="7.229992">
        <ele>45.852755</ele>
        <time>2025-08-12T08:33:17.801Z</time>
      </trkpt>
      <trkpt lat="51.764498" lon="7.230192">
        <ele>45.790573</ele>
        <time>2025-08-12T08:33:19.533Z</time>
      </trkpt>
      <trkpt lat="51.764409" lon="7.230412">
        <ele>45.730706</ele>
        <time>2025-08-12T08:33:21.199Z</time>
      </trkpt>
      <trkpt lat="51.764344" lon="7.230665">
        <ele>45.668310</ele>
        <time>2025-08-12T08:33:22.940Z</time>
      </trkpt>
      <trkpt lat="51.764305" lon="7.230940">
        <ele>45.604048</ele>
        <time>2025-08-12T08:33:24.753Z</time>
      </trkpt>
      <trkpt lat="51.764297" lon="7.231274">
        <ele>45.527913</ele>
        <time>2025-08-12T08:33:26.918Z</time>
      </trkpt>
      <trkpt lat="51.764320" lon="7.231684">
        <ele>45.434142</ele>
        <time>2025-08-12T08:33:29.660Z</time>
      </trkpt>
      <trkpt lat="51.764474" lon="7.233321">
        <ele>45.238776</ele>
        <time>2025-08-12T08:33:41.937Z</time>
      </trkpt>
      <trkpt lat="51.764640" lon="7.234475">
        <ele>45.257422</ele>
        <time>2025-08-12T08:33:51.021Z</time>
      </trkpt>
      <trkpt lat="51.764853" lon="7.235503">
        <ele>45.286798</ele>
        <time>2025-08-12T08:33:58.543Z</time>
      </trkpt>
      <trkpt lat="51.765058" lon="7.236229">
        <ele>45.389395</ele>
        <time>2025-08-12T08:34:04.336Z</time>
      </trkpt>
      <trkpt lat="51.765653" lon="7.238241">
        <ele>45.753915</ele>
        <time>2025-08-12T08:34:22.103Z</time>
      </trkpt>
      <trkpt lat="51.765928" lon="7.239509">
        <ele>46.379786</ele>
        <time>2025-08-12T08:34:34.257Z</time>
      </trkpt>
      <trkpt lat="51.766470" lon="7.241419">
        <ele>47.438356</ele>
        <time>2025-08-12T08:34:53.025Z</time>
      </trkpt>
      <trkpt lat="51.766584" lon="7.241925">
        <ele>47.745048</ele>
        <time>2025-08-12T08:34:58.072Z</time>
      </trkpt>
      <trkpt lat="51.766907" lon="7.244122">
        <ele>48.905072</ele>
        <time>2025-08-12T08:35:19.119Z</time>
      </trkpt>
      <trkpt lat="51.768001" lon="7.249316">
        <ele>50.597414</ele>
        <time>2025-08-12T08:36:04.395Z</time>
      </trkpt>
      <trkpt lat="51.768496" lon="7.251670">
        <ele>50.832410</ele>
        <time>2025-08-12T08:36:23.564Z</time>
      </trkpt>
      <trkpt lat="51.769411" lon="7.255812">
        <ele>49.515327</ele>
        <time>2025-08-12T08:36:52.491Z</time>
      </trkpt>
      <trkpt lat="51.769610" lon="7.257087">
        <ele>48.953861</ele>
        <time>2025-08-12T08:37:00.677Z</time>
      </trkpt>
      <trkpt lat="51.769647" lon="7.259631">
        <ele>47.686188</ele>
        <time>2025-08-12T08:37:16.251Z</time>
      </trkpt>
      <trkpt lat="51.769705" lon="7.260614">
        <ele>47.362940</ele>
        <time>2025-08-12T08:37:22.689Z</time>
      </trkpt>
      <trkpt lat="51.769905" lon="7.261568">
        <ele>47.255624</ele>
        <time>2025-08-12T08:37:29.726Z</time>
      </trkpt>
      <trkpt lat="51.770576" lon="7.264086">
        <ele>47.086928</ele>
        <time>2025-08-12T08:37:49.963Z</time>
      </trkpt>
      <trkpt lat="51.770921" lon="7.265732">
        <ele>47.061153</ele>
        <time>2025-08-12T08:38:02.702Z</time>
      </trkpt>
      <trkpt lat="51.771864" lon="7.270721">
        <ele>46.693576</ele>
        <time>2025-08-12T08:38:39.331Z</time>
      </trkpt>
      <trkpt lat="51.772702" lon="7.275669">
        <ele>47.115982</ele>
        <time>2025-08-12T08:39:18.326Z</time>
      </trkpt>
      <trkpt lat="51.772962" lon="7.277559">
        <ele>47.368492</ele>
        <time>2025-08-12T08:39:34.081Z</time>
      </trkpt>
      <trkpt lat="51.773152" lon="7.277658">
        <ele>47.403569</ele>
        <time>2025-08-12T08:39:36.611Z</time>
      </trkpt>
      <trkpt lat="51.773819" lon="7.278480">
        <ele>47.550952</ele>
        <time>2025-08-12T08:39:46.844Z</time>
      </trkpt>
      <trkpt lat="51.774232" lon="7.278991">
        <ele>47.635264</ele>
        <time>2025-08-12T08:39:52.968Z</time>
      </trkpt>
      <trkpt lat="51.775051" lon="7.279617">
        <ele>47.767173</ele>
        <time>2025-08-12T08:40:04.209Z</time>
      </trkpt>
      <trkpt lat="51.775223" lon="7.279746">
        <ele>47.794781</ele>
        <time>2025-08-12T08:40:06.669Z</time>
      </trkpt>
      <trkpt lat="51.776344" lon="7.280580">
        <ele>47.749600</ele>
        <time>2025-08-12T08:40:22.062Z</time>
      </trkpt>
      <trkpt lat="51.776649" lon="7.280775">
        <ele>47.701094</ele>
        <time>2025-08-12T08:40:25.755Z</time>
      </trkpt>
      <trkpt lat="51.776835" lon="7.280839">
        <ele>47.672970</ele>
        <time>2025-08-12T08:40:27.857Z</time>
      </trkpt>
      <trkpt lat="51.777254" lon="7.280781">
        <ele>47.610779</ele>
        <time>2025-08-12T08:40:32.394Z</time>
      </trkpt>
      <trkpt lat="51.777994" lon="7.280574">
        <ele>47.126881</ele>
        <time>2025-08-12T08:40:40.053Z</time>
      </trkpt>
      <trkpt lat="51.778342" lon="7.280450">
        <ele>46.872025</ele>
        <time>2025-08-12T08:40:43.622Z</time>
      </trkpt>
      <trkpt lat="51.778686" lon="7.280275">
        <ele>46.614109</ele>
        <time>2025-08-12T08:40:47.214Z</time>
      </trkpt>
      <trkpt lat="51.780157" lon="7.279395">
        <ele>45.636702</ele>
        <time>2025-08-12T08:41:03.221Z</time>
      </trkpt>
      <trkpt lat="51.780218" lon="7.279354">
        <ele>45.597791</ele>
        <time>2025-08-12T08:41:03.944Z</time>
      </trkpt>
      <trkpt lat="51.780272" lon="7.279129">
        <ele>45.509848</ele>
        <time>2025-08-12T08:41:05.550Z</time>
      </trkpt>
      <trkpt lat="51.781011" lon="7.277178">
        <ele>45.116320</ele>
        <time>2025-08-12T08:41:21.022Z</time>
      </trkpt>
      <trkpt lat="51.781255" lon="7.276416">
        <ele>45.042982</ele>
        <time>2025-08-12T08:41:27.183Z</time>
      </trkpt>
      <trkpt lat="51.781374" lon="7.276031">
        <ele>45.006196</ele>
        <time>2025-08-12T08:41:30.508Z</time>
      </trkpt>
      <trkpt lat="51.781416" lon="7.275777">
        <ele>45.035379</ele>
        <time>2025-08-12T08:41:32.622Z</time>
      </trkpt>
      <trkpt lat="51.781411" lon="7.275384">
        <ele>45.093323</ele>
        <time>2025-08-12T08:41:35.898Z</time>
      </trkpt>
      <trkpt lat="51.781325" lon="7.273942">
        <ele>45.306874</ele>
        <time>2025-08-12T08:41:48.305Z</time>
      </trkpt>
      <trkpt lat="51.781351" lon="7.273506">
        <ele>45.371443</ele>
        <time>2025-08-12T08:41:51.637Z</time>
      </trkpt>
      <trkpt lat="51.781423" lon="7.273271">
        <ele>45.410100</ele>
        <time>2025-08-12T08:41:53.468Z</time>
      </trkpt>
      <trkpt lat="51.781554" lon="7.273054">
        <ele>45.365037</ele>
        <time>2025-08-12T08:41:55.486Z</time>
      </trkpt>
      <trkpt lat="51.781686" lon="7.272982">
        <ele>45.271688</ele>
        <time>2025-08-12T08:41:56.941Z</time>
      </trkpt>
      <trkpt lat="51.782496" lon="7.272743">
        <ele>44.719969</ele>
        <time>2025-08-12T08:42:05.079Z</time>
      </trkpt>
      <trkpt lat="51.783830" lon="7.272407">
        <ele>44.230415</ele>
        <time>2025-08-12T08:42:18.931Z</time>
      </trkpt>
      <trkpt lat="51.784106" lon="7.272338">
        <ele>44.232406</ele>
        <time>2025-08-12T08:42:22.141Z</time>
      </trkpt>
      <trkpt lat="51.785381" lon="7.272023">
        <ele>44.440541</ele>
        <time>2025-08-12T08:42:39.502Z</time>
      </trkpt>
      <trkpt lat="51.785947" lon="7.271878">
        <ele>44.741973</ele>
        <time>2025-08-12T08:42:47.749Z</time>
      </trkpt>
      <trkpt lat="51.787892" lon="7.271395">
        <ele>45.591552</ele>
        <time>2025-08-12T08:43:13.755Z</time>
      </trkpt>
      <trkpt lat="51.788246" lon="7.271305">
        <ele>45.720993</ele>
        <time>2025-08-12T08:43:18.295Z</time>
      </trkpt>
      <trkpt lat="51.789517" lon="7.270987">
        <ele>45.745292</ele>
        <time>2025-08-12T08:43:34.198Z</time>
      </trkpt>
      <trkpt lat="51.789995" lon="7.270849">
        <ele>45.700631</ele>
        <time>2025-08-12T08:43:39.538Z</time>
      </trkpt>
      <trkpt lat="51.790302" lon="7.270774">
        <ele>45.672073</ele>
        <time>2025-08-12T08:43:42.862Z</time>
      </trkpt>
      <trkpt lat="51.790490" lon="7.270728">
        <ele>45.617251</ele>
        <time>2025-08-12T08:43:44.859Z</time>
      </trkpt>
      <trkpt lat="51.792282" lon="7.270269">
        <ele>45.120840</ele>
        <time>2025-08-12T08:44:04.487Z</time>
      </trkpt>
      <trkpt lat="51.793778" lon="7.269884">
        <ele>45.461620</ele>
        <time>2025-08-12T08:44:24.359Z</time>
      </trkpt>
      <trkpt lat="51.794340" lon="7.269747">
        <ele>45.608349</ele>
        <time>2025-08-12T08:44:31.696Z</time>
      </trkpt>
      <trkpt lat="51.796154" lon="7.269282">
        <ele>46.099043</ele>
        <time>2025-08-12T08:44:54.862Z</time>
      </trkpt>
      <trkpt lat="51.797597" lon="7.268915">
        <ele>46.483965</ele>
        <time>2025-08-12T08:45:13.431Z</time>
      </trkpt>
      <trkpt lat="51.798428" lon="7.268653">
        <ele>46.661040</ele>
        <time>2025-08-12T08:45:24.079Z</time>
      </trkpt>
      <trkpt lat="51.799499" lon="7.268330">
        <ele>46.844817</ele>
        <time>2025-08-12T08:45:37.695Z</time>
      </trkpt>
      <trkpt lat="51.800231" lon="7.268124">
        <ele>46.889877</ele>
        <time>2025-08-12T08:45:46.673Z</time>
      </trkpt>
      <trkpt lat="51.800666" lon="7.268001">
        <ele>46.916659</ele>
        <time>2025-08-12T08:45:51.969Z</time>
      </trkpt>
      <trkpt lat="51.800745" lon="7.267979">
        <ele>46.921520</ele>
        <time>2025-08-12T08:45:52.925Z</time>
      </trkpt>
      <trkpt lat="51.800893" lon="7.267935">
        <ele>46.930646</ele>
        <time>2025-08-12T08:45:54.717Z</time>
      </trkpt>
      <trkpt lat="51.801563" lon="7.267743">
        <ele>46.969223</ele>
        <time>2025-08-12T08:46:02.849Z</time>
      </trkpt>
      <trkpt lat="51.801828" lon="7.267553">
        <ele>46.985490</ele>
        <time>2025-08-12T08:46:06.410Z</time>
      </trkpt>
      <trkpt lat="51.801944" lon="7.267387">
        <ele>46.994183</ele>
        <time>2025-08-12T08:46:08.347Z</time>
      </trkpt>
      <trkpt lat="51.801983" lon="7.267421">
        <ele>46.996669</ele>
        <time>2025-08-12T08:46:08.903Z</time>
      </trkpt>
      <trkpt lat="51.802456" lon="7.266362">
        <ele>47.016670</ele>
        <time>2025-08-12T08:46:18.714Z</time>
      </trkpt>
      <trkpt lat="51.802682" lon="7.266030">
        <ele>46.949877</ele>
        <time>2025-08-12T08:46:22.245Z</time>
      </trkpt>
      <trkpt lat="51.802857" lon="7.265910">
        <ele>46.908296</ele>
        <time>2025-08-12T08:46:24.392Z</time>
      </trkpt>
      <trkpt lat="51.803803" lon="7.265259">
        <ele>46.683395</ele>
        <time>2025-08-12T08:46:35.703Z</time>
      </trkpt>
      <trkpt lat="51.804035" lon="7.265046">
        <ele>46.641092</ele>
        <time>2025-08-12T08:46:38.589Z</time>
      </trkpt>
      <trkpt lat="51.804102" lon="7.264941">
        <ele>46.638560</ele>
        <time>2025-08-12T08:46:39.618Z</time>
      </trkpt>
      <trkpt lat="51.804077" lon="7.264895">
        <ele>46.637532</ele>
        <time>2025-08-12T08:46:40.006Z</time>
      </trkpt>
      <trkpt lat="51.804278" lon="7.264571">
        <ele>46.629830</ele>
        <time>2025-08-12T08:46:43.084Z</time>
      </trkpt>
      <trkpt lat="51.804444" lon="7.264360">
        <ele>46.624100</ele>
        <time>2025-08-12T08:46:45.395Z</time>
      </trkpt>
      <trkpt lat="51.805273" lon="7.263641">
        <ele>46.598571</ele>
        <time>2025-08-12T08:46:56.812Z</time>
      </trkpt>
      <trkpt lat="51.805660" lon="7.263367">
        <ele>46.697403</ele>
        <time>2025-08-12T08:47:02.242Z</time>
      </trkpt>
      <trkpt lat="51.805802" lon="7.263226">
        <ele>46.759857</ele>
        <time>2025-08-12T08:47:04.512Z</time>
      </trkpt>
      <trkpt lat="51.806067" lon="7.262869">
        <ele>46.889129</ele>
        <time>2025-08-12T08:47:09.370Z</time>
      </trkpt>
      <trkpt lat="51.806292" lon="7.262381">
        <ele>47.030207</ele>
        <time>2025-08-12T08:47:14.743Z</time>
      </trkpt>
      <trkpt lat="51.806385" lon="7.262044">
        <ele>47.115734</ele>
        <time>2025-08-12T08:47:17.893Z</time>
      </trkpt>
      <trkpt lat="51.806461" lon="7.261629">
        <ele>47.216042</ele>
        <time>2025-08-12T08:47:21.338Z</time>
      </trkpt>
      <trkpt lat="51.806638" lon="7.260302">
        <ele>47.129568</ele>
        <time>2025-08-12T08:47:30.695Z</time>
      </trkpt>
      <trkpt lat="51.806733" lon="7.259607">
        <ele>47.041945</ele>
        <time>2025-08-12T08:47:35.300Z</time>
      </trkpt>
      <trkpt lat="51.806849" lon="7.259258">
        <ele>46.993168</ele>
        <time>2025-08-12T08:47:37.885Z</time>
      </trkpt>
      <trkpt lat="51.807301" lon="7.258095">
        <ele>47.079230</ele>
        <time>2025-08-12T08:47:47.814Z</time>
      </trkpt>
      <trkpt lat="51.807511" lon="7.257596">
        <ele>47.224011</ele>
        <time>2025-08-12T08:47:53.005Z</time>
      </trkpt>
      <trkpt lat="51.807929" lon="7.256760">
        <ele>47.481889</ele>
        <time>2025-08-12T08:48:02.451Z</time>
      </trkpt>
      <trkpt lat="51.809259" lon="7.255181">
        <ele>48.096857</ele>
        <time>2025-08-12T08:48:24.155Z</time>
      </trkpt>
      <trkpt lat="51.809643" lon="7.254718">
        <ele>48.272462</ele>
        <time>2025-08-12T08:48:30.126Z</time>
      </trkpt>
      <trkpt lat="51.809816" lon="7.254511">
        <ele>48.293780</ele>
        <time>2025-08-12T08:48:32.819Z</time>
      </trkpt>
      <trkpt lat="51.810026" lon="7.254230">
        <ele>48.320780</ele>
        <time>2025-08-12T08:48:36.182Z</time>
      </trkpt>
      <trkpt lat="51.810294" lon="7.253765">
        <ele>48.359716</ele>
        <time>2025-08-12T08:48:40.981Z</time>
      </trkpt>
      <trkpt lat="51.810480" lon="7.253355">
        <ele>48.390863</ele>
        <time>2025-08-12T08:48:44.806Z</time>
      </trkpt>
      <trkpt lat="51.810653" lon="7.252792">
        <ele>48.429369</ele>
        <time>2025-08-12T08:48:49.550Z</time>
      </trkpt>
      <trkpt lat="51.811185" lon="7.250460">
        <ele>48.211184</ele>
        <time>2025-08-12T08:49:07.363Z</time>
      </trkpt>
      <trkpt lat="51.811237" lon="7.250352">
        <ele>48.195929</ele>
        <time>2025-08-12T08:49:08.308Z</time>
      </trkpt>
      <trkpt lat="51.811277" lon="7.250287">
        <ele>48.185710</ele>
        <time>2025-08-12T08:49:08.933Z</time>
      </trkpt>
      <trkpt lat="51.811783" lon="7.251073">
        <ele>48.020117</ele>
        <time>2025-08-12T08:49:16.380Z</time>
      </trkpt>
      <trkpt lat="51.811854" lon="7.251178">
        <ele>47.992613</ele>
        <time>2025-08-12T08:49:17.375Z</time>
      </trkpt>
      <trkpt lat="51.812088" lon="7.251564">
        <ele>47.897060</ele>
        <time>2025-08-12T08:49:20.933Z</time>
      </trkpt>
      <trkpt lat="51.812599" lon="7.252352">
        <ele>47.695213</ele>
        <time>2025-08-12T08:49:28.783Z</time>
      </trkpt>
      <trkpt lat="51.812886" lon="7.252805">
        <ele>47.626198</ele>
        <time>2025-08-12T08:49:33.496Z</time>
      </trkpt>
      <trkpt lat="51.813020" lon="7.252583">
        <ele>47.651448</ele>
        <time>2025-08-12T08:49:35.832Z</time>
      </trkpt>
      <trkpt lat="51.813168" lon="7.252407">
        <ele>47.675629</ele>
        <time>2025-08-12T08:49:38.156Z</time>
      </trkpt>
      <trkpt lat="51.814108" lon="7.251681">
        <ele>47.812748</ele>
        <time>2025-08-12T08:49:51.292Z</time>
      </trkpt>
      <trkpt lat="51.814271" lon="7.251645">
        <ele>47.834403</ele>
        <time>2025-08-12T08:49:53.254Z</time>
      </trkpt>
      <trkpt lat="51.814357" lon="7.251558">
        <ele>47.847756</ele>
        <time>2025-08-12T08:49:54.440Z</time>
      </trkpt>
      <trkpt lat="51.816532" lon="7.252703">
        <ele>47.867530</ele>
        <time>2025-08-12T08:50:30.836Z</time>
      </trkpt>
      <trkpt lat="51.816589" lon="7.252725">
        <ele>47.880650</ele>
        <time>2025-08-12T08:50:31.837Z</time>
      </trkpt>
      <trkpt lat="51.819289" lon="7.252182">
        <ele>48.655731</ele>
        <time>2025-08-12T08:51:19.053Z</time>
      </trkpt>
      <trkpt lat="51.821365" lon="7.251782">
        <ele>49.433459</ele>
        <time>2025-08-12T08:51:54.456Z</time>
      </trkpt>
      <trkpt lat="51.822099" lon="7.251646">
        <ele>49.953846</ele>
        <time>2025-08-12T08:52:09.374Z</time>
      </trkpt>
      <trkpt lat="51.822687" lon="7.251519">
        <ele>50.383775</ele>
        <time>2025-08-12T08:52:20.852Z</time>
      </trkpt>
      <trkpt lat="51.823029" lon="7.249709">
        <ele>50.922055</ele>
        <time>2025-08-12T08:52:35.492Z</time>
      </trkpt>
      <trkpt lat="51.823761" lon="7.245763">
        <ele>51.760721</ele>
        <time>2025-08-12T08:53:07.692Z</time>
      </trkpt>
      <trkpt lat="51.824677" lon="7.240801">
        <ele>53.709275</ele>
        <time>2025-08-12T08:53:53.049Z</time>
      </trkpt>
      <trkpt lat="51.824932" lon="7.239430">
        <ele>54.137147</ele>
        <time>2025-08-12T08:54:04.623Z</time>
      </trkpt>
      <trkpt lat="51.825422" lon="7.236869">
        <ele>54.315770</ele>
        <time>2025-08-12T08:54:24.931Z</time>
      </trkpt>
      <trkpt lat="51.825945" lon="7.234077">
        <ele>53.904821</ele>
        <time>2025-08-12T08:54:45.080Z</time>
      </trkpt>
      <trkpt lat="51.826089" lon="7.233358">
        <ele>53.704963</ele>
        <time>2025-08-12T08:54:50.028Z</time>
      </trkpt>
      <trkpt lat="51.826250" lon="7.232808">
        <ele>53.537315</ele>
        <time>2025-08-12T08:54:54.004Z</time>
      </trkpt>
      <trkpt lat="51.826622" lon="7.231526">
        <ele>53.147167</ele>
        <time>2025-08-12T08:55:03.393Z</time>
      </trkpt>
      <trkpt lat="51.826834" lon="7.230405">
        <ele>52.683142</ele>
        <time>2025-08-12T08:55:11.081Z</time>
      </trkpt>
      <trkpt lat="51.826914" lon="7.229992">
        <ele>52.501491</ele>
        <time>2025-08-12T08:55:13.830Z</time>
      </trkpt>
      <trkpt lat="51.827139" lon="7.228750">
        <ele>51.958291</ele>
        <time>2025-08-12T08:55:21.891Z</time>
      </trkpt>
      <trkpt lat="51.827367" lon="7.227526">
        <ele>51.514629</ele>
        <time>2025-08-12T08:55:29.760Z</time>
      </trkpt>
      <trkpt lat="51.827704" lon="7.225726">
        <ele>50.900433</ele>
        <time>2025-08-12T08:55:42.212Z</time>
      </trkpt>
      <trkpt lat="51.828167" lon="7.223052">
        <ele>50.761145</ele>
        <time>2025-08-12T08:56:02.610Z</time>
      </trkpt>
      <trkpt lat="51.828795" lon="7.219408">
        <ele>50.526378</ele>
        <time>2025-08-12T08:56:29.144Z</time>
      </trkpt>
      <trkpt lat="51.828865" lon="7.219277">
        <ele>50.533149</ele>
        <time>2025-08-12T08:56:30.484Z</time>
      </trkpt>
      <trkpt lat="51.828328" lon="7.219035">
        <ele>50.568413</ele>
        <time>2025-08-12T08:56:39.877Z</time>
      </trkpt>
      <trkpt lat="51.828113" lon="7.218944">
        <ele>50.582472</ele>
        <time>2025-08-12T08:56:43.665Z</time>
      </trkpt>
      <trkpt lat="51.826670" lon="7.218289">
        <ele>50.609097</ele>
        <time>2025-08-12T08:57:08.210Z</time>
      </trkpt>
      <trkpt lat="51.826551" lon="7.210410">
        <ele>50.240708</ele>
        <time>2025-08-12T08:58:25.291Z</time>
      </trkpt>
      <trkpt lat="51.826550" lon="7.210364">
        <ele>50.244074</ele>
        <time>2025-08-12T08:58:25.757Z</time>
      </trkpt>
      <trkpt lat="51.826548" lon="7.210234">
        <ele>50.253583</ele>
        <time>2025-08-12T08:58:27.095Z</time>
      </trkpt>
      <trkpt lat="51.826510" lon="7.207894">
        <ele>50.419737</ele>
        <time>2025-08-12T08:58:51.548Z</time>
      </trkpt>
      <trkpt lat="51.826561" lon="7.206554">
        <ele>50.504165</ele>
        <time>2025-08-12T08:59:05.168Z</time>
      </trkpt>
      <trkpt lat="51.826586" lon="7.206254">
        <ele>50.523201</ele>
        <time>2025-08-12T08:59:08.213Z</time>
      </trkpt>
      <trkpt lat="51.826737" lon="7.205350">
        <ele>50.571752</ele>
        <time>2025-08-12T08:59:17.736Z</time>
      </trkpt>
      <trkpt lat="51.826724" lon="7.204724">
        <ele>50.571027</ele>
        <time>2025-08-12T08:59:24.132Z</time>
      </trkpt>
      <trkpt lat="51.826636" lon="7.204068">
        <ele>50.570250</ele>
        <time>2025-08-12T08:59:30.949Z</time>
      </trkpt>
      <trkpt lat="51.826592" lon="7.203738">
        <ele>50.569859</ele>
        <time>2025-08-12T08:59:34.375Z</time>
      </trkpt>
      <trkpt lat="51.825992" lon="7.199536">
        <ele>50.181437</ele>
        <time>2025-08-12T09:00:16.226Z</time>
      </trkpt>
      <trkpt lat="51.825241" lon="7.198750">
        <ele>50.027611</ele>
        <time>2025-08-12T09:00:26.005Z</time>
      </trkpt>
      <trkpt lat="51.824667" lon="7.198066">
        <ele>49.905008</ele>
        <time>2025-08-12T09:00:34.236Z</time>
      </trkpt>
      <trkpt lat="51.824551" lon="7.197913">
        <ele>49.904833</ele>
        <time>2025-08-12T09:00:35.998Z</time>
      </trkpt>
      <trkpt lat="51.823940" lon="7.197017">
        <ele>49.917021</ele>
        <time>2025-08-12T09:00:45.889Z</time>
      </trkpt>
      <trkpt lat="51.823469" lon="7.196175">
        <ele>49.927394</ele>
        <time>2025-08-12T09:00:54.508Z</time>
      </trkpt>
      <trkpt lat="51.823250" lon="7.195722">
        <ele>49.935631</ele>
        <time>2025-08-12T09:00:58.568Z</time>
      </trkpt>
      <trkpt lat="51.822406" lon="7.193766">
        <ele>49.977391</ele>
        <time>2025-08-12T09:01:15.860Z</time>
      </trkpt>
      <trkpt lat="51.822042" lon="7.192908">
        <ele>50.048292</ele>
        <time>2025-08-12T09:01:24.102Z</time>
      </trkpt>
      <trkpt lat="51.821957" lon="7.192706">
        <ele>50.067325</ele>
        <time>2025-08-12T09:01:26.059Z</time>
      </trkpt>
      <trkpt lat="51.821648" lon="7.192000">
        <ele>50.134705</ele>
        <time>2025-08-12T09:01:32.982Z</time>
      </trkpt>
      <trkpt lat="51.821283" lon="7.191338">
        <ele>50.203800</ele>
        <time>2025-08-12T09:01:39.414Z</time>
      </trkpt>
      <trkpt lat="51.820304" lon="7.189609">
        <ele>49.818630</ele>
        <time>2025-08-12T09:01:55.232Z</time>
      </trkpt>
      <trkpt lat="51.819903" lon="7.189097">
        <ele>49.735842</ele>
        <time>2025-08-12T09:02:00.917Z</time>
      </trkpt>
      <trkpt lat="51.819743" lon="7.188915">
        <ele>49.763620</ele>
        <time>2025-08-12T09:02:03.161Z</time>
      </trkpt>
      <trkpt lat="51.819553" lon="7.188730">
        <ele>49.795114</ele>
        <time>2025-08-12T09:02:05.742Z</time>
      </trkpt>
      <trkpt lat="51.819389" lon="7.188634">
        <ele>49.819883</ele>
        <time>2025-08-12T09:02:07.820Z</time>
      </trkpt>
      <trkpt lat="51.818417" lon="7.188426">
        <ele>49.959127</ele>
        <time>2025-08-12T09:02:20.754Z</time>
      </trkpt>
      <trkpt lat="51.818100" lon="7.188401">
        <ele>49.963288</ele>
        <time>2025-08-12T09:02:24.777Z</time>
      </trkpt>
      <trkpt lat="51.817937" lon="7.188422">
        <ele>49.957072</ele>
        <time>2025-08-12T09:02:26.768Z</time>
      </trkpt>
      <trkpt lat="51.817762" lon="7.188473">
        <ele>49.950312</ele>
        <time>2025-08-12T09:02:28.906Z</time>
      </trkpt>
      <trkpt lat="51.817545" lon="7.188588">
        <ele>49.941631</ele>
        <time>2025-08-12T09:02:31.590Z</time>
      </trkpt>
      <trkpt lat="51.817315" lon="7.188791">
        <ele>49.931671</ele>
        <time>2025-08-12T09:02:34.584Z</time>
      </trkpt>
      <trkpt lat="51.817121" lon="7.189039">
        <ele>49.922271</ele>
        <time>2025-08-12T09:02:37.397Z</time>
      </trkpt>
      <trkpt lat="51.816583" lon="7.189920">
        <ele>49.906115</ele>
        <time>2025-08-12T09:02:45.883Z</time>
      </trkpt>
      <trkpt lat="51.816042" lon="7.190821">
        <ele>49.913407</ele>
        <time>2025-08-12T09:02:55.153Z</time>
      </trkpt>
      <trkpt lat="51.814293" lon="7.193730">
        <ele>50.291252</ele>
        <time>2025-08-12T09:03:26.206Z</time>
      </trkpt>
      <trkpt lat="51.813991" lon="7.194116">
        <ele>50.497333</ele>
        <time>2025-08-12T09:03:31.379Z</time>
      </trkpt>
      <trkpt lat="51.813673" lon="7.194353">
        <ele>50.697661</ele>
        <time>2025-08-12T09:03:36.176Z</time>
      </trkpt>
      <trkpt lat="51.813362" lon="7.194451">
        <ele>50.878946</ele>
        <time>2025-08-12T09:03:40.580Z</time>
      </trkpt>
      <trkpt lat="51.813106" lon="7.194452">
        <ele>51.025417</ele>
        <time>2025-08-12T09:03:44.175Z</time>
      </trkpt>
      <trkpt lat="51.812716" lon="7.194338">
        <ele>51.252171</ele>
        <time>2025-08-12T09:03:49.832Z</time>
      </trkpt>
      <trkpt lat="51.810819" lon="7.193633">
        <ele>52.245005</ele>
        <time>2025-08-12T09:04:16.057Z</time>
      </trkpt>
      <trkpt lat="51.809397" lon="7.193074">
        <ele>52.725607</ele>
        <time>2025-08-12T09:04:34.823Z</time>
      </trkpt>
      <trkpt lat="51.807597" lon="7.192367">
        <ele>53.416738</ele>
        <time>2025-08-12T09:04:58.941Z</time>
      </trkpt>
      <trkpt lat="51.806841" lon="7.191558">
        <ele>53.633100</ele>
        <time>2025-08-12T09:05:11.095Z</time>
      </trkpt>
      <trkpt lat="51.803495" lon="7.187740">
        <ele>54.398852</ele>
        <time>2025-08-12T09:06:01.030Z</time>
      </trkpt>
      <trkpt lat="51.800269" lon="7.184008">
        <ele>55.610103</ele>
        <time>2025-08-12T09:06:52.596Z</time>
      </trkpt>
      <trkpt lat="51.798265" lon="7.181684">
        <ele>55.777040</ele>
        <time>2025-08-12T09:07:22.629Z</time>
      </trkpt>
      <trkpt lat="51.795171" lon="7.178113">
        <ele>55.143054</ele>
        <time>2025-08-12T09:08:04.851Z</time>
      </trkpt>
      <trkpt lat="51.793178" lon="7.175818">
        <ele>55.832701</ele>
        <time>2025-08-12T09:08:36.566Z</time>
      </trkpt>
      <trkpt lat="51.791926" lon="7.174375">
        <ele>57.155093</ele>
        <time>2025-08-12T09:08:57.965Z</time>
      </trkpt>
      <trkpt lat="51.791690" lon="7.174099">
        <ele>57.478837</ele>
        <time>2025-08-12T09:09:02.526Z</time>
      </trkpt>
      <trkpt lat="51.790687" lon="7.172925">
        <ele>59.441543</ele>
        <time>2025-08-12T09:09:24.294Z</time>
      </trkpt>
      <trkpt lat="51.788122" lon="7.170045">
        <ele>65.382626</ele>
        <time>2025-08-12T09:10:22.134Z</time>
      </trkpt>
      <trkpt lat="51.787102" lon="7.168867">
        <ele>66.675844</ele>
        <time>2025-08-12T09:10:39.545Z</time>
      </trkpt>
      <trkpt lat="51.786934" lon="7.168669">
        <ele>66.890331</ele>
        <time>2025-08-12T09:10:42.596Z</time>
      </trkpt>
      <trkpt lat="51.786540" lon="7.168216">
        <ele>67.426941</ele>
        <time>2025-08-12T09:10:50.212Z</time>
      </trkpt>
      <trkpt lat="51.786469" lon="7.168127">
        <ele>67.528841</ele>
        <time>2025-08-12T09:10:51.676Z</time>
      </trkpt>
      <trkpt lat="51.786244" lon="7.167815">
        <ele>67.865056</ele>
        <time>2025-08-12T09:10:56.727Z</time>
      </trkpt>
      <trkpt lat="51.786058" lon="7.167434">
        <ele>68.205583</ele>
        <time>2025-08-12T09:11:01.908Z</time>
      </trkpt>
      <trkpt lat="51.786025" lon="7.167353">
        <ele>68.273631</ele>
        <time>2025-08-12T09:11:02.915Z</time>
      </trkpt>
      <trkpt lat="51.785902" lon="7.167038">
        <ele>68.534984</ele>
        <time>2025-08-12T09:11:06.759Z</time>
      </trkpt>
      <trkpt lat="51.785647" lon="7.166384">
        <ele>69.032823</ele>
        <time>2025-08-12T09:11:14.278Z</time>
      </trkpt>
      <trkpt lat="51.785024" lon="7.164790">
        <ele>68.308771</ele>
        <time>2025-08-12T09:11:26.486Z</time>
      </trkpt>
      <trkpt lat="51.784691" lon="7.163941">
        <ele>67.930206</ele>
        <time>2025-08-12T09:11:32.154Z</time>
      </trkpt>
      <trkpt lat="51.784377" lon="7.163132">
        <ele>67.857787</ele>
        <time>2025-08-12T09:11:37.739Z</time>
      </trkpt>
      <trkpt lat="51.783599" lon="7.161140">
        <ele>67.712539</ele>
        <time>2025-08-12T09:11:57.426Z</time>
      </trkpt>
      <trkpt lat="51.783365" lon="7.160541">
        <ele>67.714133</ele>
        <time>2025-08-12T09:12:03.741Z</time>
      </trkpt>
      <trkpt lat="51.783249" lon="7.160289">
        <ele>67.714840</ele>
        <time>2025-08-12T09:12:06.309Z</time>
      </trkpt>
      <trkpt lat="51.783127" lon="7.160184">
        <ele>67.715342</ele>
        <time>2025-08-12T09:12:08.057Z</time>
      </trkpt>
      <trkpt lat="51.783144" lon="7.160091">
        <ele>67.715561</ele>
        <time>2025-08-12T09:12:08.782Z</time>
      </trkpt>
      <trkpt lat="51.783082" lon="7.160057">
        <ele>67.715799</ele>
        <time>2025-08-12T09:12:09.564Z</time>
      </trkpt>
      <trkpt lat="51.781861" lon="7.160431">
        <ele>67.786835</ele>
        <time>2025-08-12T09:12:21.960Z</time>
      </trkpt>
      <trkpt lat="51.781784" lon="7.160431">
        <ele>67.795582</ele>
        <time>2025-08-12T09:12:23.031Z</time>
      </trkpt>
      <trkpt lat="51.781122" lon="7.160149">
        <ele>67.873356</ele>
        <time>2025-08-12T09:12:33.494Z</time>
      </trkpt>
      <trkpt lat="51.780077" lon="7.159836">
        <ele>69.536369</ele>
        <time>2025-08-12T09:12:57.253Z</time>
      </trkpt>
      <trkpt lat="51.780058" lon="7.159938">
        <ele>69.705035</ele>
        <time>2025-08-12T09:12:59.078Z</time>
      </trkpt>
      <trkpt lat="51.780049" lon="7.160010">
        <ele>69.821341</ele>
        <time>2025-08-12T09:13:00.353Z</time>
      </trkpt>
      <trkpt lat="51.779356" lon="7.159784">
        <ele>71.630651</ele>
        <time>2025-08-12T09:13:19.734Z</time>
      </trkpt>
      <trkpt lat="51.779168" lon="7.159817">
        <ele>72.114621</ele>
        <time>2025-08-12T09:13:24.695Z</time>
      </trkpt>
      <trkpt lat="51.779039" lon="7.160086">
        <ele>72.525925</ele>
        <time>2025-08-12T09:13:29.949Z</time>
      </trkpt>
      <trkpt lat="51.778993" lon="7.160052">
        <ele>72.526198</ele>
        <time>2025-08-12T09:13:31.169Z</time>
      </trkpt>
      <trkpt lat="51.778866" lon="7.160598">
        <ele>72.528148</ele>
        <time>2025-08-12T09:13:37.245Z</time>
      </trkpt>
      <trkpt lat="51.778837" lon="7.160978">
        <ele>72.529427</ele>
        <time>2025-08-12T09:13:40.326Z</time>
      </trkpt>
      <trkpt lat="51.778853" lon="7.161571">
        <ele>72.531411</ele>
        <time>2025-08-12T09:13:44.026Z</time>
      </trkpt>
      <trkpt lat="51.778243" lon="7.161556">
        <ele>72.534707</ele>
        <time>2025-08-12T09:13:51.987Z</time>
      </trkpt>
      <trkpt lat="51.777586" lon="7.161513">
        <ele>73.054479</ele>
        <time>2025-08-12T09:14:00.883Z</time>
      </trkpt>
      <trkpt lat="51.775436" lon="7.161298">
        <ele>76.785671</ele>
        <time>2025-08-12T09:14:40.414Z</time>
      </trkpt>
      <trkpt lat="51.774890" lon="7.161231">
        <ele>78.325981</ele>
        <time>2025-08-12T09:14:53.354Z</time>
      </trkpt>
      <trkpt lat="51.773256" lon="7.161025">
        <ele>83.062237</ele>
        <time>2025-08-12T09:15:30.997Z</time>
      </trkpt>
      <trkpt lat="51.772898" lon="7.160930">
        <ele>84.118507</ele>
        <time>2025-08-12T09:15:37.452Z</time>
      </trkpt>
      <trkpt lat="51.772500" lon="7.160734">
        <ele>84.778296</ele>
        <time>2025-08-12T09:15:44.328Z</time>
      </trkpt>
      <trkpt lat="51.772005" lon="7.160472">
        <ele>85.181680</ele>
        <time>2025-08-12T09:15:52.902Z</time>
      </trkpt>
      <trkpt lat="51.771539" lon="7.160338">
        <ele>85.548237</ele>
        <time>2025-08-12T09:15:59.801Z</time>
      </trkpt>
      <trkpt lat="51.771262" lon="7.160319">
        <ele>85.762949</ele>
        <time>2025-08-12T09:16:03.514Z</time>
      </trkpt>
      <trkpt lat="51.770940" lon="7.160370">
        <ele>85.845633</ele>
        <time>2025-08-12T09:16:07.377Z</time>
      </trkpt>
      <trkpt lat="51.770089" lon="7.160606">
        <ele>83.852161</ele>
        <time>2025-08-12T09:16:15.163Z</time>
      </trkpt>
      <trkpt lat="51.769464" lon="7.160667">
        <ele>82.406559</ele>
        <time>2025-08-12T09:16:20.097Z</time>
      </trkpt>
      <trkpt lat="51.769046" lon="7.160623">
        <ele>81.629462</ele>
        <time>2025-08-12T09:16:24.812Z</time>
      </trkpt>
      <trkpt lat="51.767997" lon="7.160394">
        <ele>80.409942</ele>
        <time>2025-08-12T09:16:38.291Z</time>
      </trkpt>
      <trkpt lat="51.767434" lon="7.160278">
        <ele>79.756064</ele>
        <time>2025-08-12T09:16:48.997Z</time>
      </trkpt>
      <trkpt lat="51.766875" lon="7.160226">
        <ele>80.848543</ele>
        <time>2025-08-12T09:17:01.654Z</time>
      </trkpt>
      <trkpt lat="51.763935" lon="7.160409">
        <ele>86.736997</ele>
        <time>2025-08-12T09:18:10.864Z</time>
      </trkpt>
      <trkpt lat="51.762783" lon="7.160525">
        <ele>86.980668</ele>
        <time>2025-08-12T09:18:31.239Z</time>
      </trkpt>
      <trkpt lat="51.762566" lon="7.160698">
        <ele>86.989032</ele>
        <time>2025-08-12T09:18:34.794Z</time>
      </trkpt>
      <trkpt lat="51.762372" lon="7.160972">
        <ele>86.997938</ele>
        <time>2025-08-12T09:18:38.482Z</time>
      </trkpt>
      <trkpt lat="51.761731" lon="7.162941">
        <ele>85.536614</ele>
        <time>2025-08-12T09:18:51.368Z</time>
      </trkpt>
      <trkpt lat="51.761527" lon="7.163710">
        <ele>84.862264</ele>
        <time>2025-08-12T09:18:56.115Z</time>
      </trkpt>
      <trkpt lat="51.761391" lon="7.164536">
        <ele>84.326336</ele>
        <time>2025-08-12T09:19:01.071Z</time>
      </trkpt>
      <trkpt lat="51.761063" lon="7.166320">
        <ele>83.293797</ele>
        <time>2025-08-12T09:19:12.609Z</time>
      </trkpt>
      <trkpt lat="51.760985" lon="7.166722">
        <ele>83.060057</ele>
        <time>2025-08-12T09:19:15.463Z</time>
      </trkpt>
      <trkpt lat="51.760861" lon="7.167112">
        <ele>82.829561</ele>
        <time>2025-08-12T09:19:18.432Z</time>
      </trkpt>
      <trkpt lat="51.760612" lon="7.167456">
        <ele>82.551824</ele>
        <time>2025-08-12T09:19:21.935Z</time>
      </trkpt>
      <trkpt lat="51.760033" lon="7.167890">
        <ele>82.010729</ele>
        <time>2025-08-12T09:19:28.658Z</time>
      </trkpt>
      <trkpt lat="51.759652" lon="7.168162">
        <ele>81.657611</ele>
        <time>2025-08-12T09:19:32.716Z</time>
      </trkpt>
      <trkpt lat="51.759526" lon="7.168319">
        <ele>81.514516</ele>
        <time>2025-08-12T09:19:34.169Z</time>
      </trkpt>
      <trkpt lat="51.759317" lon="7.168684">
        <ele>80.771797</ele>
        <time>2025-08-12T09:19:36.922Z</time>
      </trkpt>
      <trkpt lat="51.758420" lon="7.170979">
        <ele>76.656272</ele>
        <time>2025-08-12T09:19:50.949Z</time>
      </trkpt>
      <trkpt lat="51.758173" lon="7.171433">
        <ele>75.635645</ele>
        <time>2025-08-12T09:19:54.037Z</time>
      </trkpt>
      <trkpt lat="51.757988" lon="7.171679">
        <ele>74.982013</ele>
        <time>2025-08-12T09:19:56.034Z</time>
      </trkpt>
      <trkpt lat="51.757804" lon="7.171868">
        <ele>74.387208</ele>
        <time>2025-08-12T09:19:57.855Z</time>
      </trkpt>
      <trkpt lat="51.757584" lon="7.172033">
        <ele>73.725543</ele>
        <time>2025-08-12T09:19:59.892Z</time>
      </trkpt>
      <trkpt lat="51.757471" lon="7.172104">
        <ele>73.394792</ele>
        <time>2025-08-12T09:20:01.336Z</time>
      </trkpt>
      <trkpt lat="51.756700" lon="7.172522">
        <ele>71.075837</ele>
        <time>2025-08-12T09:20:11.137Z</time>
      </trkpt>
      <trkpt lat="51.756306" lon="7.172745">
        <ele>69.833340</ele>
        <time>2025-08-12T09:20:16.086Z</time>
      </trkpt>
      <trkpt lat="51.755227" lon="7.173569">
        <ele>66.273363</ele>
        <time>2025-08-12T09:20:30.025Z</time>
      </trkpt>
      <trkpt lat="51.754070" lon="7.174431">
        <ele>62.434661</ele>
        <time>2025-08-12T09:20:45.084Z</time>
      </trkpt>
      <trkpt lat="51.753534" lon="7.174735">
        <ele>60.771314</ele>
        <time>2025-08-12T09:20:49.727Z</time>
      </trkpt>
      <trkpt lat="51.752662" lon="7.175124">
        <ele>58.213074</ele>
        <time>2025-08-12T09:20:57.098Z</time>
      </trkpt>
      <trkpt lat="51.752404" lon="7.175308">
        <ele>57.415530</ele>
        <time>2025-08-12T09:20:59.448Z</time>
      </trkpt>
      <trkpt lat="51.752259" lon="7.175497">
        <ele>56.888638</ele>
        <time>2025-08-12T09:21:01.018Z</time>
      </trkpt>
      <trkpt lat="51.752062" lon="7.175878">
        <ele>56.148792</ele>
        <time>2025-08-12T09:21:03.650Z</time>
      </trkpt>
      <trkpt lat="51.751892" lon="7.176434">
        <ele>55.412136</ele>
        <time>2025-08-12T09:21:07.022Z</time>
      </trkpt>
      <trkpt lat="51.751736" lon="7.177008">
        <ele>54.667447</ele>
        <time>2025-08-12T09:21:10.476Z</time>
      </trkpt>
      <trkpt lat="51.751666" lon="7.177190">
        <ele>54.412913</ele>
        <time>2025-08-12T09:21:11.675Z</time>
      </trkpt>
      <trkpt lat="51.751471" lon="7.177449">
        <ele>53.928475</ele>
        <time>2025-08-12T09:21:13.956Z</time>
      </trkpt>
      <trkpt lat="51.749975" lon="7.178387">
        <ele>51.117258</ele>
        <time>2025-08-12T09:21:28.411Z</time>
      </trkpt>
      <trkpt lat="51.749801" lon="7.178382">
        <ele>50.825534</ele>
        <time>2025-08-12T09:21:29.982Z</time>
      </trkpt>
      <trkpt lat="51.749139" lon="7.178193">
        <ele>49.715710</ele>
        <time>2025-08-12T09:21:36.112Z</time>
      </trkpt>
      <trkpt lat="51.749016" lon="7.178174">
        <ele>49.522389</ele>
        <time>2025-08-12T09:21:37.245Z</time>
      </trkpt>
      <trkpt lat="51.747743" lon="7.177838">
        <ele>47.504269</ele>
        <time>2025-08-12T09:21:48.966Z</time>
      </trkpt>
      <trkpt lat="51.747539" lon="7.177841">
        <ele>47.185083</ele>
        <time>2025-08-12T09:21:50.841Z</time>
      </trkpt>
      <trkpt lat="51.747306" lon="7.177910">
        <ele>46.983145</ele>
        <time>2025-08-12T09:21:53.038Z</time>
      </trkpt>
      <trkpt lat="51.747274" lon="7.177776">
        <ele>46.915905</ele>
        <time>2025-08-12T09:21:53.867Z</time>
      </trkpt>
      <trkpt lat="51.747182" lon="7.177465">
        <ele>46.754538</ele>
        <time>2025-08-12T09:21:55.904Z</time>
      </trkpt>
      <trkpt lat="51.746764" lon="7.176114">
        <ele>46.047457</ele>
        <time>2025-08-12T09:22:05.548Z</time>
      </trkpt>
      <trkpt lat="51.746707" lon="7.176287">
        <ele>45.955708</ele>
        <time>2025-08-12T09:22:06.941Z</time>
      </trkpt>
      <trkpt lat="51.746539" lon="7.176618">
        <ele>45.763644</ele>
        <time>2025-08-12T09:22:10.112Z</time>
      </trkpt>
      <trkpt lat="51.746349" lon="7.176868">
        <ele>45.638726</ele>
        <time>2025-08-12T09:22:12.931Z</time>
      </trkpt>
      <trkpt lat="51.745816" lon="7.177568">
        <ele>45.288560</ele>
        <time>2025-08-12T09:22:20.386Z</time>
      </trkpt>
      <trkpt lat="51.745331" lon="7.178204">
        <ele>44.970118</ele>
        <time>2025-08-12T09:22:26.732Z</time>
      </trkpt>
      <trkpt lat="51.745283" lon="7.178259">
        <ele>44.940119</ele>
        <time>2025-08-12T09:22:27.317Z</time>
      </trkpt>
      <trkpt lat="51.745234" lon="7.178312">
        <ele>44.910059</ele>
        <time>2025-08-12T09:22:27.895Z</time>
      </trkpt>
      <trkpt lat="51.744796" lon="7.178806">
        <ele>44.762803</ele>
        <time>2025-08-12T09:22:33.238Z</time>
      </trkpt>
      <trkpt lat="51.744201" lon="7.179437">
        <ele>44.600491</ele>
        <time>2025-08-12T09:22:41.015Z</time>
      </trkpt>
      <trkpt lat="51.743293" lon="7.180418">
        <ele>44.652012</ele>
        <time>2025-08-12T09:22:55.184Z</time>
      </trkpt>
      <trkpt lat="51.743019" lon="7.179830">
        <ele>44.852840</ele>
        <time>2025-08-12T09:23:03.325Z</time>
      </trkpt>
      <trkpt lat="51.742581" lon="7.178948">
        <ele>45.161385</ele>
        <time>2025-08-12T09:23:15.678Z</time>
      </trkpt>
      <trkpt lat="51.742455" lon="7.178700">
        <ele>45.249398</ele>
        <time>2025-08-12T09:23:19.136Z</time>
      </trkpt>
      <trkpt lat="51.741685" lon="7.177137">
        <ele>45.904304</ele>
        <time>2025-08-12T09:23:41.288Z</time>
      </trkpt>
      <trkpt lat="51.741469" lon="7.176668">
        <ele>46.095959</ele>
        <time>2025-08-12T09:23:47.909Z</time>
      </trkpt>
      <trkpt lat="51.740889" lon="7.175499">
        <ele>46.380439</ele>
        <time>2025-08-12T09:24:04.538Z</time>
      </trkpt>
      <trkpt lat="51.740053" lon="7.173775">
        <ele>46.647458</ele>
        <time>2025-08-12T09:24:26.654Z</time>
      </trkpt>
      <trkpt lat="51.740026" lon="7.173724">
        <ele>46.647923</ele>
        <time>2025-08-12T09:24:27.286Z</time>
      </trkpt>
      <trkpt lat="51.739824" lon="7.173300">
        <ele>46.651629</ele>
        <time>2025-08-12T09:24:32.415Z</time>
      </trkpt>
      <trkpt lat="51.739609" lon="7.172853">
        <ele>46.655550</ele>
        <time>2025-08-12T09:24:37.787Z</time>
      </trkpt>
      <trkpt lat="51.739531" lon="7.172691">
        <ele>46.656972</ele>
        <time>2025-08-12T09:24:39.779Z</time>
      </trkpt>
      <trkpt lat="51.739040" lon="7.171679">
        <ele>46.687742</ele>
        <time>2025-08-12T09:24:53.266Z</time>
      </trkpt>
      <trkpt lat="51.738742" lon="7.171036">
        <ele>46.772095</ele>
        <time>2025-08-12T09:25:01.801Z</time>
      </trkpt>
      <trkpt lat="51.738534" lon="7.170624">
        <ele>46.827925</ele>
        <time>2025-08-12T09:25:07.420Z</time>
      </trkpt>
      <trkpt lat="51.738093" lon="7.169746">
        <ele>46.946662</ele>
        <time>2025-08-12T09:25:19.716Z</time>
      </trkpt>
      <trkpt lat="51.737920" lon="7.169369">
        <ele>46.802646</ele>
        <time>2025-08-12T09:25:24.263Z</time>
      </trkpt>
      <trkpt lat="51.737817" lon="7.169068">
        <ele>46.575756</ele>
        <time>2025-08-12T09:25:27.300Z</time>
      </trkpt>
      <trkpt lat="51.737686" lon="7.168397">
        <ele>46.111578</ele>
        <time>2025-08-12T09:25:33.259Z</time>
      </trkpt>
      <trkpt lat="51.737620" lon="7.168427">
        <ele>46.038530</ele>
        <time>2025-08-12T09:25:33.910Z</time>
      </trkpt>
      <trkpt lat="51.737514" lon="7.168471">
        <ele>45.921926</ele>
        <time>2025-08-12T09:25:34.922Z</time>
      </trkpt>
      <trkpt lat="51.737492" lon="7.168375">
        <ele>45.854391</ele>
        <time>2025-08-12T09:25:35.524Z</time>
      </trkpt>
      <trkpt lat="51.737212" lon="7.168365">
        <ele>45.556007</ele>
        <time>2025-08-12T09:25:38.135Z</time>
      </trkpt>
      <trkpt lat="51.736888" lon="7.168267">
        <ele>45.204815</ele>
        <time>2025-08-12T09:25:41.176Z</time>
      </trkpt>
      <trkpt lat="51.736670" lon="7.168168">
        <ele>44.933539</ele>
        <time>2025-08-12T09:25:43.205Z</time>
      </trkpt>
      <trkpt lat="51.735591" lon="7.166727">
        <ele>42.942017</ele>
        <time>2025-08-12T09:25:56.075Z</time>
      </trkpt>
      <trkpt lat="51.735440" lon="7.166586">
        <ele>42.693925</ele>
        <time>2025-08-12T09:25:57.734Z</time>
      </trkpt>
      <trkpt lat="51.735144" lon="7.166219">
        <ele>42.245674</ele>
        <time>2025-08-12T09:26:01.329Z</time>
      </trkpt>
      <trkpt lat="51.735054" lon="7.166221">
        <ele>42.149502</ele>
        <time>2025-08-12T09:26:02.568Z</time>
      </trkpt>
      <trkpt lat="51.735051" lon="7.166217">
        <ele>42.145345</ele>
        <time>2025-08-12T09:26:02.608Z</time>
      </trkpt>
      <trkpt lat="51.734983" lon="7.166118">
        <ele>42.047518</ele>
        <time>2025-08-12T09:26:03.493Z</time>
      </trkpt>
      <trkpt lat="51.734901" lon="7.166015">
        <ele>41.936515</ele>
        <time>2025-08-12T09:26:04.499Z</time>
      </trkpt>
      <trkpt lat="51.734891" lon="7.165846">
        <ele>41.824178</ele>
        <time>2025-08-12T09:26:05.528Z</time>
      </trkpt>
      <trkpt lat="51.734325" lon="7.165044">
        <ele>41.019592</ele>
        <time>2025-08-12T09:26:12.704Z</time>
      </trkpt>
      <trkpt lat="51.732897" lon="7.163139">
        <ele>40.148660</ele>
        <time>2025-08-12T09:26:31.803Z</time>
      </trkpt>
      <trkpt lat="51.732106" lon="7.162088">
        <ele>40.282670</ele>
        <time>2025-08-12T09:26:46.613Z</time>
      </trkpt>
      <trkpt lat="51.731904" lon="7.161887">
        <ele>40.369561</ele>
        <time>2025-08-12T09:26:50.083Z</time>
      </trkpt>
      <trkpt lat="51.730779" lon="7.161293">
        <ele>40.431531</ele>
        <time>2025-08-12T09:27:04.985Z</time>
      </trkpt>
      <trkpt lat="51.730600" lon="7.161177">
        <ele>40.248522</ele>
        <time>2025-08-12T09:27:06.796Z</time>
      </trkpt>
      <trkpt lat="51.730257" lon="7.160880">
        <ele>39.879229</ele>
        <time>2025-08-12T09:27:10.379Z</time>
      </trkpt>
      <trkpt lat="51.729806" lon="7.161465">
        <ele>39.330318</ele>
        <time>2025-08-12T09:27:15.756Z</time>
      </trkpt>
      <trkpt lat="51.729345" lon="7.161993">
        <ele>38.903963</ele>
        <time>2025-08-12T09:27:21.170Z</time>
      </trkpt>
      <trkpt lat="51.728603" lon="7.162918">
        <ele>38.506022</ele>
        <time>2025-08-12T09:27:31.377Z</time>
      </trkpt>
      <trkpt lat="51.728579" lon="7.163083">
        <ele>38.461459</ele>
        <time>2025-08-12T09:27:32.793Z</time>
      </trkpt>
      <trkpt lat="51.728583" lon="7.163268">
        <ele>38.412788</ele>
        <time>2025-08-12T09:27:34.299Z</time>
      </trkpt>
      <trkpt lat="51.728618" lon="7.163446">
        <ele>38.363685</ele>
        <time>2025-08-12T09:27:35.781Z</time>
      </trkpt>
      <trkpt lat="51.728690" lon="7.163646">
        <ele>38.302863</ele>
        <time>2025-08-12T09:27:37.513Z</time>
      </trkpt>
      <trkpt lat="51.729031" lon="7.164223">
        <ele>37.991451</ele>
        <time>2025-08-12T09:27:42.900Z</time>
      </trkpt>
      <trkpt lat="51.729058" lon="7.164338">
        <ele>37.934978</ele>
        <time>2025-08-12T09:27:43.684Z</time>
      </trkpt>
      <trkpt lat="51.729020" lon="7.164448">
        <ele>37.877143</ele>
        <time>2025-08-12T09:27:44.467Z</time>
      </trkpt>
      <trkpt lat="51.728896" lon="7.164654">
        <ele>37.745238</ele>
        <time>2025-08-12T09:27:46.226Z</time>
      </trkpt>
      <trkpt lat="51.728797" lon="7.164931">
        <ele>37.598387</ele>
        <time>2025-08-12T09:27:48.164Z</time>
      </trkpt>
      <trkpt lat="51.728660" lon="7.165129">
        <ele>37.462070</ele>
        <time>2025-08-12T09:27:49.960Z</time>
      </trkpt>
      <trkpt lat="51.728113" lon="7.165646">
        <ele>36.992164</ele>
        <time>2025-08-12T09:27:56.095Z</time>
      </trkpt>
      <trkpt lat="51.727888" lon="7.165859">
        <ele>36.859845</ele>
        <time>2025-08-12T09:27:58.712Z</time>
      </trkpt>
      <trkpt lat="51.727602" lon="7.166162">
        <ele>36.765511</ele>
        <time>2025-08-12T09:28:02.326Z</time>
      </trkpt>
      <trkpt lat="51.727500" lon="7.166347">
        <ele>36.723205</ele>
        <time>2025-08-12T09:28:04.000Z</time>
      </trkpt>
      <trkpt lat="51.727389" lon="7.166627">
        <ele>36.666422</ele>
        <time>2025-08-12T09:28:06.292Z</time>
      </trkpt>
      <trkpt lat="51.727332" lon="7.166828">
        <ele>36.628662</ele>
        <time>2025-08-12T09:28:07.848Z</time>
      </trkpt>
      <trkpt lat="51.727273" lon="7.167055">
        <ele>36.586612</ele>
        <time>2025-08-12T09:28:10.278Z</time>
      </trkpt>
      <trkpt lat="51.727248" lon="7.167139">
        <ele>36.570694</ele>
        <time>2025-08-12T09:28:10.966Z</time>
      </trkpt>
      <trkpt lat="51.727295" lon="7.167282">
        <ele>36.543042</ele>
        <time>2025-08-12T09:28:12.157Z</time>
      </trkpt>
      <trkpt lat="51.727596" lon="7.167407">
        <ele>36.457335</ele>
        <time>2025-08-12T09:28:15.884Z</time>
      </trkpt>
      <trkpt lat="51.728184" lon="7.167805">
        <ele>36.362059</ele>
        <time>2025-08-12T09:28:23.523Z</time>
      </trkpt>
      <trkpt lat="51.728371" lon="7.167970">
        <ele>36.343243</ele>
        <time>2025-08-12T09:28:26.126Z</time>
      </trkpt>
      <trkpt lat="51.728568" lon="7.168263">
        <ele>36.319592</ele>
        <time>2025-08-12T09:28:29.347Z</time>
      </trkpt>
      <trkpt lat="51.729264" lon="7.168824">
        <ele>36.250904</ele>
        <time>2025-08-12T09:28:38.228Z</time>
      </trkpt>
      <trkpt lat="51.729503" lon="7.169078">
        <ele>36.207447</ele>
        <time>2025-08-12T09:28:41.391Z</time>
      </trkpt>
      <trkpt lat="51.729814" lon="7.169532">
        <ele>36.127097</ele>
        <time>2025-08-12T09:28:45.985Z</time>
      </trkpt>
      <trkpt lat="51.731530" lon="7.172160">
        <ele>35.698977</ele>
        <time>2025-08-12T09:29:12.888Z</time>
      </trkpt>
      <trkpt lat="51.731841" lon="7.172804">
        <ele>35.612995</ele>
        <time>2025-08-12T09:29:18.639Z</time>
      </trkpt>
      <trkpt lat="51.732173" lon="7.173571">
        <ele>35.597522</ele>
        <time>2025-08-12T09:29:25.157Z</time>
      </trkpt>
      <trkpt lat="51.732984" lon="7.175379">
        <ele>35.642160</ele>
        <time>2025-08-12T09:29:41.420Z</time>
      </trkpt>
      <trkpt lat="51.733424" lon="7.176619">
        <ele>36.300744</ele>
        <time>2025-08-12T09:29:53.560Z</time>
      </trkpt>
      <trkpt lat="51.734022" lon="7.178091">
        <ele>37.081136</ele>
        <time>2025-08-12T09:30:10.551Z</time>
      </trkpt>
      <trkpt lat="51.734193" lon="7.178579">
        <ele>37.288269</ele>
        <time>2025-08-12T09:30:15.714Z</time>
      </trkpt>
      <trkpt lat="51.734305" lon="7.179158">
        <ele>37.512353</ele>
        <time>2025-08-12T09:30:21.014Z</time>
      </trkpt>
      <trkpt lat="51.734357" lon="7.179489">
        <ele>37.638503</ele>
        <time>2025-08-12T09:30:23.927Z</time>
      </trkpt>
      <trkpt lat="51.734393" lon="7.180651">
        <ele>38.033695</ele>
        <time>2025-08-12T09:30:32.950Z</time>
      </trkpt>
      <trkpt lat="51.734462" lon="7.181159">
        <ele>38.055512</ele>
        <time>2025-08-12T09:30:36.661Z</time>
      </trkpt>
      <trkpt lat="51.734548" lon="7.181534">
        <ele>38.072287</ele>
        <time>2025-08-12T09:30:39.487Z</time>
      </trkpt>
      <trkpt lat="51.734602" lon="7.181654">
        <ele>38.078510</ele>
        <time>2025-08-12T09:30:40.544Z</time>
      </trkpt>
      <trkpt lat="51.734253" lon="7.182015">
        <ele>38.106584</ele>
        <time>2025-08-12T09:30:45.456Z</time>
      </trkpt>
      <trkpt lat="51.734093" lon="7.182279">
        <ele>38.122080</ele>
        <time>2025-08-12T09:30:48.235Z</time>
      </trkpt>
      <trkpt lat="51.734036" lon="7.182672">
        <ele>38.139012</ele>
        <time>2025-08-12T09:30:51.296Z</time>
      </trkpt>
      <trkpt lat="51.733896" lon="7.184515">
        <ele>38.369711</ele>
        <time>2025-08-12T09:31:06.010Z</time>
      </trkpt>
      <trkpt lat="51.733566" lon="7.184436">
        <ele>38.444777</ele>
        <time>2025-08-12T09:31:10.295Z</time>
      </trkpt>
      <trkpt lat="51.733280" lon="7.184441">
        <ele>38.509134</ele>
        <time>2025-08-12T09:31:13.892Z</time>
      </trkpt>
      <trkpt lat="51.732913" lon="7.184364">
        <ele>38.559337</ele>
        <time>2025-08-12T09:31:18.394Z</time>
      </trkpt>
      <trkpt lat="51.732887" lon="7.184669">
        <ele>38.563466</ele>
        <time>2025-08-12T09:31:20.611Z</time>
      </trkpt>
      <trkpt lat="51.732818" lon="7.185577">
        <ele>38.575736</ele>
        <time>2025-08-12T09:31:27.379Z</time>
      </trkpt>
      <trkpt lat="51.732793" lon="7.185872">
        <ele>38.579730</ele>
        <time>2025-08-12T09:31:29.580Z</time>
      </trkpt>
      <trkpt lat="51.732749" lon="7.186337">
        <ele>38.586039</ele>
        <time>2025-08-12T09:31:33.099Z</time>
      </trkpt>
      <trkpt lat="51.732741" lon="7.186408">
        <ele>38.587007</ele>
        <time>2025-08-12T09:31:33.635Z</time>
      </trkpt>
      <trkpt lat="51.732655" lon="7.186923">
        <ele>38.594161</ele>
        <time>2025-08-12T09:31:37.696Z</time>
      </trkpt>
      <trkpt lat="51.732562" lon="7.187566">
        <ele>38.387553</ele>
        <time>2025-08-12T09:31:42.406Z</time>
      </trkpt>
      <trkpt lat="51.732422" lon="7.187510">
        <ele>38.309100</ele>
        <time>2025-08-12T09:31:44.005Z</time>
      </trkpt>
      <trkpt lat="51.732122" lon="7.187365">
        <ele>38.138764</ele>
        <time>2025-08-12T09:31:47.179Z</time>
      </trkpt>
      <trkpt lat="51.731810" lon="7.187218">
        <ele>37.961978</ele>
        <time>2025-08-12T09:31:50.219Z</time>
      </trkpt>
      <trkpt lat="51.731679" lon="7.187159">
        <ele>37.888002</ele>
        <time>2025-08-12T09:31:51.530Z</time>
      </trkpt>
      <trkpt lat="51.731371" lon="7.187022">
        <ele>37.714228</ele>
        <time>2025-08-12T09:31:54.768Z</time>
      </trkpt>
      <trkpt lat="51.730888" lon="7.186805">
        <ele>37.913836</ele>
        <time>2025-08-12T09:32:00.321Z</time>
      </trkpt>
      <trkpt lat="51.730033" lon="7.186403">
        <ele>38.737569</ele>
        <time>2025-08-12T09:32:11.607Z</time>
      </trkpt>
      <trkpt lat="51.729936" lon="7.186365">
        <ele>38.829898</ele>
        <time>2025-08-12T09:32:13.477Z</time>
      </trkpt>
      <trkpt lat="51.729426" lon="7.186198">
        <ele>39.363042</ele>
        <time>2025-08-12T09:32:24.621Z</time>
      </trkpt>
      <trkpt lat="51.729055" lon="7.186145">
        <ele>40.281577</ele>
        <time>2025-08-12T09:32:32.253Z</time>
      </trkpt>
      <trkpt lat="51.728595" lon="7.186154">
        <ele>41.416112</ele>
        <time>2025-08-12T09:32:40.920Z</time>
      </trkpt>
      <trkpt lat="51.728186" lon="7.186236">
        <ele>42.432535</ele>
        <time>2025-08-12T09:32:49.585Z</time>
      </trkpt>
      <trkpt lat="51.727719" lon="7.186376">
        <ele>43.603937</ele>
        <time>2025-08-12T09:32:59.022Z</time>
      </trkpt>
      <trkpt lat="51.727734" lon="7.186478">
        <ele>43.768721</ele>
        <time>2025-08-12T09:33:00.193Z</time>
      </trkpt>
      <trkpt lat="51.727661" lon="7.186613">
        <ele>44.068892</ele>
        <time>2025-08-12T09:33:02.173Z</time>
      </trkpt>
      <trkpt lat="51.727578" lon="7.186635">
        <ele>44.296348</ele>
        <time>2025-08-12T09:33:03.614Z</time>
      </trkpt>
      <trkpt lat="51.727476" lon="7.186656">
        <ele>44.574414</ele>
        <time>2025-08-12T09:33:05.339Z</time>
      </trkpt>
      <trkpt lat="51.727402" lon="7.186602">
        <ele>44.794019</ele>
        <time>2025-08-12T09:33:06.712Z</time>
      </trkpt>
      <trkpt lat="51.726351" lon="7.186961">
        <ele>47.699083</ele>
        <time>2025-08-12T09:33:27.984Z</time>
      </trkpt>
      <trkpt lat="51.724530" lon="7.187618">
        <ele>54.208244</ele>
        <time>2025-08-12T09:34:13.389Z</time>
      </trkpt>
      <trkpt lat="51.723681" lon="7.187906">
        <ele>56.977608</ele>
        <time>2025-08-12T09:34:32.632Z</time>
      </trkpt>
      <trkpt lat="51.723161" lon="7.188077">
        <ele>58.567586</ele>
        <time>2025-08-12T09:34:43.704Z</time>
      </trkpt>
      <trkpt lat="51.721933" lon="7.188489">
        <ele>62.374745</ele>
        <time>2025-08-12T09:35:09.806Z</time>
      </trkpt>
      <trkpt lat="51.721783" lon="7.188652">
        <ele>62.931478</ele>
        <time>2025-08-12T09:35:13.589Z</time>
      </trkpt>
      <trkpt lat="51.721741" lon="7.188665">
        <ele>63.063148</ele>
        <time>2025-08-12T09:35:14.470Z</time>
      </trkpt>
      <trkpt lat="51.721665" lon="7.188692">
        <ele>63.302747</ele>
        <time>2025-08-12T09:35:16.139Z</time>
      </trkpt>
      <trkpt lat="51.721628" lon="7.188706">
        <ele>63.419755</ele>
        <time>2025-08-12T09:35:16.943Z</time>
      </trkpt>
      <trkpt lat="51.721454" lon="7.188678">
        <ele>63.958144</ele>
        <time>2025-08-12T09:35:20.665Z</time>
      </trkpt>
      <trkpt lat="51.721224" lon="7.188729">
        <ele>64.672947</ele>
        <time>2025-08-12T09:35:25.690Z</time>
      </trkpt>
      <trkpt lat="51.719836" lon="7.189180">
        <ele>69.562912</ele>
        <time>2025-08-12T09:35:58.649Z</time>
      </trkpt>
      <trkpt lat="51.718014" lon="7.189794">
        <ele>75.867709</ele>
        <time>2025-08-12T09:36:43.010Z</time>
      </trkpt>
      <trkpt lat="51.716635" lon="7.190257">
        <ele>79.183009</ele>
        <time>2025-08-12T09:37:11.270Z</time>
      </trkpt>
      <trkpt lat="51.714991" lon="7.190802">
        <ele>80.832847</ele>
        <time>2025-08-12T09:37:34.628Z</time>
      </trkpt>
      <trkpt lat="51.713353" lon="7.191357">
        <ele>81.488241</ele>
        <time>2025-08-12T09:37:54.051Z</time>
      </trkpt>
      <trkpt lat="51.712662" lon="7.191592">
        <ele>82.235977</ele>
        <time>2025-08-12T09:38:04.050Z</time>
      </trkpt>
      <trkpt lat="51.712548" lon="7.191631">
        <ele>82.359369</ele>
        <time>2025-08-12T09:38:05.926Z</time>
      </trkpt>
      <trkpt lat="51.712000" lon="7.191819">
        <ele>82.952586</ele>
        <time>2025-08-12T09:38:15.932Z</time>
      </trkpt>
      <trkpt lat="51.710839" lon="7.192230">
        <ele>86.158204</ele>
        <time>2025-08-12T09:38:40.662Z</time>
      </trkpt>
      <trkpt lat="51.710205" lon="7.192614">
        <ele>88.008385</ele>
        <time>2025-08-12T09:38:55.279Z</time>
      </trkpt>
      <trkpt lat="51.708781" lon="7.193863">
        <ele>92.260911</ele>
        <time>2025-08-12T09:39:28.670Z</time>
      </trkpt>
      <trkpt lat="51.708399" lon="7.194166">
        <ele>92.976096</ele>
        <time>2025-08-12T09:39:36.574Z</time>
      </trkpt>
      <trkpt lat="51.708020" lon="7.194377">
        <ele>93.463875</ele>
        <time>2025-08-12T09:39:43.258Z</time>
      </trkpt>
      <trkpt lat="51.707605" lon="7.194426">
        <ele>93.970135</ele>
        <time>2025-08-12T09:39:49.591Z</time>
      </trkpt>
      <trkpt lat="51.707253" lon="7.194389">
        <ele>94.399304</ele>
        <time>2025-08-12T09:39:54.634Z</time>
      </trkpt>
      <trkpt lat="51.706910" lon="7.194285">
        <ele>94.818766</ele>
        <time>2025-08-12T09:39:59.365Z</time>
      </trkpt>
      <trkpt lat="51.705525" lon="7.193246">
        <ele>95.261977</ele>
        <time>2025-08-12T09:40:19.253Z</time>
      </trkpt>
      <trkpt lat="51.704150" lon="7.192099">
        <ele>94.362569</ele>
        <time>2025-08-12T09:40:37.282Z</time>
      </trkpt>
      <trkpt lat="51.703683" lon="7.191714">
        <ele>93.938308</ele>
        <time>2025-08-12T09:40:41.951Z</time>
      </trkpt>
      <trkpt lat="51.703331" lon="7.191405">
        <ele>92.373152</ele>
        <time>2025-08-12T09:40:45.240Z</time>
      </trkpt>
      <trkpt lat="51.702647" lon="7.190915">
        <ele>89.450071</ele>
        <time>2025-08-12T09:40:51.011Z</time>
      </trkpt>
      <trkpt lat="51.701685" lon="7.190497">
        <ele>85.862749</ele>
        <time>2025-08-12T09:40:58.578Z</time>
      </trkpt>
      <trkpt lat="51.701113" lon="7.190336">
        <ele>84.092575</ele>
        <time>2025-08-12T09:41:03.173Z</time>
      </trkpt>
      <trkpt lat="51.700865" lon="7.190314">
        <ele>83.335362</ele>
        <time>2025-08-12T09:41:05.231Z</time>
      </trkpt>
      <trkpt lat="51.700763" lon="7.190285">
        <ele>83.019607</ele>
        <time>2025-08-12T09:41:06.100Z</time>
      </trkpt>
      <trkpt lat="51.700728" lon="7.190334">
        <ele>82.878336</ele>
        <time>2025-08-12T09:41:06.497Z</time>
      </trkpt>
      <trkpt lat="51.700687" lon="7.190392">
        <ele>82.712102</ele>
        <time>2025-08-12T09:41:06.979Z</time>
      </trkpt>
      <trkpt lat="51.700485" lon="7.190297">
        <ele>82.070644</ele>
        <time>2025-08-12T09:41:08.825Z</time>
      </trkpt>
      <trkpt lat="51.698949" lon="7.190103">
        <ele>81.207143</ele>
        <time>2025-08-12T09:41:24.552Z</time>
      </trkpt>
      <trkpt lat="51.698045" lon="7.190045">
        <ele>82.264364</ele>
        <time>2025-08-12T09:41:39.229Z</time>
      </trkpt>
      <trkpt lat="51.695775" lon="7.189936">
        <ele>87.384152</ele>
        <time>2025-08-12T09:42:28.692Z</time>
      </trkpt>
      <trkpt lat="51.695038" lon="7.189965">
        <ele>88.713590</ele>
        <time>2025-08-12T09:42:40.124Z</time>
      </trkpt>
      <trkpt lat="51.694500" lon="7.189879">
        <ele>88.312356</ele>
        <time>2025-08-12T09:42:45.760Z</time>
      </trkpt>
      <trkpt lat="51.693761" lon="7.189562">
        <ele>87.048471</ele>
        <time>2025-08-12T09:42:52.553Z</time>
      </trkpt>
      <trkpt lat="51.693309" lon="7.189312">
        <ele>86.258701</ele>
        <time>2025-08-12T09:42:56.560Z</time>
      </trkpt>
      <trkpt lat="51.692066" lon="7.188284">
        <ele>83.419750</ele>
        <time>2025-08-12T09:43:08.325Z</time>
      </trkpt>
      <trkpt lat="51.690087" lon="7.186853">
        <ele>80.880858</ele>
        <time>2025-08-12T09:43:29.316Z</time>
      </trkpt>
      <trkpt lat="51.688827" lon="7.185850">
        <ele>81.148785</ele>
        <time>2025-08-12T09:43:47.028Z</time>
      </trkpt>
      <trkpt lat="51.688589" lon="7.185657">
        <ele>81.243018</ele>
        <time>2025-08-12T09:43:50.960Z</time>
      </trkpt>
      <trkpt lat="51.687042" lon="7.184517">
        <ele>82.267165</ele>
        <time>2025-08-12T09:44:16.420Z</time>
      </trkpt>
      <trkpt lat="51.686446" lon="7.184162">
        <ele>82.324850</ele>
        <time>2025-08-12T09:44:24.004Z</time>
      </trkpt>
      <trkpt lat="51.685779" lon="7.183954">
        <ele>81.660710</ele>
        <time>2025-08-12T09:44:30.859Z</time>
      </trkpt>
      <trkpt lat="51.680408" lon="7.182453">
        <ele>74.178580</ele>
        <time>2025-08-12T09:45:20.635Z</time>
      </trkpt>
      <trkpt lat="51.678350" lon="7.181883">
        <ele>73.824659</ele>
        <time>2025-08-12T09:45:43.835Z</time>
      </trkpt>
      <trkpt lat="51.674502" lon="7.180811">
        <ele>79.091674</ele>
        <time>2025-08-12T09:46:51.789Z</time>
      </trkpt>
      <trkpt lat="51.673143" lon="7.180440">
        <ele>78.038916</ele>
        <time>2025-08-12T09:47:06.562Z</time>
      </trkpt>
      <trkpt lat="51.671637" lon="7.180038">
        <ele>75.461221</ele>
        <time>2025-08-12T09:47:19.264Z</time>
      </trkpt>
      <trkpt lat="51.670572" lon="7.179716">
        <ele>73.514073</ele>
        <time>2025-08-12T09:47:29.050Z</time>
      </trkpt>
      <trkpt lat="51.669545" lon="7.179455">
        <ele>73.419678</ele>
        <time>2025-08-12T09:47:39.994Z</time>
      </trkpt>
      <trkpt lat="51.669551" lon="7.179309">
        <ele>73.411439</ele>
        <time>2025-08-12T09:47:40.986Z</time>
      </trkpt>
      <trkpt lat="51.670007" lon="7.179435">
        <ele>73.369434</ele>
        <time>2025-08-12T09:47:47.240Z</time>
      </trkpt>
      <trkpt lat="51.669551" lon="7.179309">
        <ele>74.648936</ele>
        <time>2025-08-12T09:47:55.939Z</time>
      </trkpt>
      <trkpt lat="51.669545" lon="7.179455">
        <ele>74.939179</ele>
        <time>2025-08-12T09:47:57.933Z</time>
      </trkpt>
      <trkpt lat="51.669499" lon="7.179483">
        <ele>75.096438</ele>
        <time>2025-08-12T09:47:59.038Z</time>
      </trkpt>
      <trkpt lat="51.669442" lon="7.179485">
        <ele>75.278788</ele>
        <time>2025-08-12T09:48:00.332Z</time>
      </trkpt>
      <trkpt lat="51.669370" lon="7.180276">
        <ele>76.864639</ele>
        <time>2025-08-12T09:48:12.552Z</time>
      </trkpt>
      <trkpt lat="51.669264" lon="7.180882">
        <ele>78.113607</ele>
        <time>2025-08-12T09:48:22.711Z</time>
      </trkpt>
      <trkpt lat="51.669158" lon="7.181327">
        <ele>79.059188</ele>
        <time>2025-08-12T09:48:30.315Z</time>
      </trkpt>
      <trkpt lat="51.668997" lon="7.182014">
        <ele>79.423033</ele>
        <time>2025-08-12T09:48:40.431Z</time>
      </trkpt>
      <trkpt lat="51.668880" lon="7.182486">
        <ele>79.643812</ele>
        <time>2025-08-12T09:48:45.812Z</time>
      </trkpt>
      <trkpt lat="51.668778" lon="7.183420">
        <ele>80.055735</ele>
        <time>2025-08-12T09:48:52.447Z</time>
      </trkpt>
      <trkpt lat="51.668744" lon="7.183976">
        <ele>80.298403</ele>
        <time>2025-08-12T09:48:55.638Z</time>
      </trkpt>
      <trkpt lat="51.668694" lon="7.184492">
        <ele>80.078669</ele>
        <time>2025-08-12T09:48:58.492Z</time>
      </trkpt>
      <trkpt lat="51.668647" lon="7.184920">
        <ele>79.701558</ele>
        <time>2025-08-12T09:49:00.840Z</time>
      </trkpt>
      <trkpt lat="51.668353" lon="7.186840">
        <ele>77.985730</ele>
        <time>2025-08-12T09:49:12.148Z</time>
      </trkpt>
      <trkpt lat="51.668104" lon="7.188426">
        <ele>77.138822</ele>
        <time>2025-08-12T09:49:23.005Z</time>
      </trkpt>
      <trkpt lat="51.667837" lon="7.190080">
        <ele>76.036545</ele>
        <time>2025-08-12T09:49:33.808Z</time>
      </trkpt>
      <trkpt lat="51.667764" lon="7.190513">
        <ele>75.407805</ele>
        <time>2025-08-12T09:49:36.333Z</time>
      </trkpt>
      <trkpt lat="51.667516" lon="7.192156">
        <ele>73.038408</ele>
        <time>2025-08-12T09:49:45.175Z</time>
      </trkpt>
      <trkpt lat="51.667507" lon="7.192223">
        <ele>72.942350</ele>
        <time>2025-08-12T09:49:45.518Z</time>
      </trkpt>
      <trkpt lat="51.667249" lon="7.193817">
        <ele>69.943356</ele>
        <time>2025-08-12T09:49:53.828Z</time>
      </trkpt>
      <trkpt lat="51.666991" lon="7.195436">
        <ele>66.701682</ele>
        <time>2025-08-12T09:50:02.179Z</time>
      </trkpt>
      <trkpt lat="51.666898" lon="7.195921">
        <ele>66.075516</ele>
        <time>2025-08-12T09:50:04.760Z</time>
      </trkpt>
      <trkpt lat="51.666869" lon="7.196086">
        <ele>65.863981</ele>
        <time>2025-08-12T09:50:05.632Z</time>
      </trkpt>
      <trkpt lat="51.666234" lon="7.198635">
        <ele>63.422560</ele>
        <time>2025-08-12T09:50:20.951Z</time>
      </trkpt>
      <trkpt lat="51.665827" lon="7.200260">
        <ele>64.257615</ele>
        <time>2025-08-12T09:50:37.985Z</time>
      </trkpt>
      <trkpt lat="51.665714" lon="7.200692">
        <ele>64.481019</ele>
        <time>2025-08-12T09:50:43.493Z</time>
      </trkpt>
      <trkpt lat="51.665686" lon="7.200779">
        <ele>64.527723</ele>
        <time>2025-08-12T09:50:44.628Z</time>
      </trkpt>
      <trkpt lat="51.665205" lon="7.202473">
        <ele>67.057459</ele>
        <time>2025-08-12T09:51:07.003Z</time>
      </trkpt>
      <trkpt lat="51.665049" lon="7.203028">
        <ele>67.892681</ele>
        <time>2025-08-12T09:51:14.390Z</time>
      </trkpt>
      <trkpt lat="51.665085" lon="7.203129">
        <ele>68.052355</ele>
        <time>2025-08-12T09:51:16.109Z</time>
      </trkpt>
      <trkpt lat="51.663089" lon="7.210086">
        <ele>75.830090</ele>
        <time>2025-08-12T09:52:40.995Z</time>
      </trkpt>
      <trkpt lat="51.662813" lon="7.211051">
        <ele>76.180686</ele>
        <time>2025-08-12T09:52:47.882Z</time>
      </trkpt>
      <trkpt lat="51.662648" lon="7.211565">
        <ele>76.109267</ele>
        <time>2025-08-12T09:52:51.190Z</time>
      </trkpt>
      <trkpt lat="51.661983" lon="7.213073">
        <ele>74.918495</ele>
        <time>2025-08-12T09:53:01.654Z</time>
      </trkpt>
      <trkpt lat="51.661455" lon="7.213968">
        <ele>74.648973</ele>
        <time>2025-08-12T09:53:10.293Z</time>
      </trkpt>
      <trkpt lat="51.661047" lon="7.214614">
        <ele>75.119635</ele>
        <time>2025-08-12T09:53:18.646Z</time>
      </trkpt>
      <trkpt lat="51.660599" lon="7.215204">
        <ele>75.595740</ele>
        <time>2025-08-12T09:53:27.951Z</time>
      </trkpt>
      <trkpt lat="51.659428" lon="7.216518">
        <ele>76.917553</ele>
        <time>2025-08-12T09:53:50.724Z</time>
      </trkpt>
      <trkpt lat="51.657031" lon="7.219073">
        <ele>77.714237</ele>
        <time>2025-08-12T09:54:28.986Z</time>
      </trkpt>
      <trkpt lat="51.654783" lon="7.221479">
        <ele>73.501327</ele>
        <time>2025-08-12T09:54:52.511Z</time>
      </trkpt>
      <trkpt lat="51.654335" lon="7.222064">
        <ele>72.603501</ele>
        <time>2025-08-12T09:54:58.044Z</time>
      </trkpt>
      <trkpt lat="51.654068" lon="7.222487">
        <ele>72.993190</ele>
        <time>2025-08-12T09:55:02.251Z</time>
      </trkpt>
      <trkpt lat="51.653787" lon="7.223022">
        <ele>73.445867</ele>
        <time>2025-08-12T09:55:08.317Z</time>
      </trkpt>
      <trkpt lat="51.653466" lon="7.223800">
        <ele>74.049247</ele>
        <time>2025-08-12T09:55:18.039Z</time>
      </trkpt>
      <trkpt lat="51.652883" lon="7.225329">
        <ele>76.359492</ele>
        <time>2025-08-12T09:55:40.738Z</time>
      </trkpt>
      <trkpt lat="51.652398" lon="7.226629">
        <ele>78.846765</ele>
        <time>2025-08-12T09:56:01.199Z</time>
      </trkpt>
      <trkpt lat="51.651803" lon="7.228155">
        <ele>79.630631</ele>
        <time>2025-08-12T09:56:20.416Z</time>
      </trkpt>
      <trkpt lat="51.651195" lon="7.229322">
        <ele>79.704524</ele>
        <time>2025-08-12T09:56:29.570Z</time>
      </trkpt>
      <trkpt lat="51.650788" lon="7.229921">
        <ele>78.504260</ele>
        <time>2025-08-12T09:56:34.229Z</time>
      </trkpt>
      <trkpt lat="51.650182" lon="7.230670">
        <ele>76.841183</ele>
        <time>2025-08-12T09:56:40.606Z</time>
      </trkpt>
      <trkpt lat="51.650148" lon="7.230588">
        <ele>76.707922</ele>
        <time>2025-08-12T09:56:41.347Z</time>
      </trkpt>
      <trkpt lat="51.649224" lon="7.231664">
        <ele>75.831704</ele>
        <time>2025-08-12T09:56:51.730Z</time>
      </trkpt>
      <trkpt lat="51.648310" lon="7.232721">
        <ele>75.787764</ele>
        <time>2025-08-12T09:57:08.032Z</time>
      </trkpt>
      <trkpt lat="51.647474" lon="7.233739">
        <ele>77.128243</ele>
        <time>2025-08-12T09:57:27.783Z</time>
      </trkpt>
      <trkpt lat="51.647261" lon="7.234079">
        <ele>77.511778</ele>
        <time>2025-08-12T09:57:32.246Z</time>
      </trkpt>
      <trkpt lat="51.647173" lon="7.234241">
        <ele>77.682694</ele>
        <time>2025-08-12T09:57:33.990Z</time>
      </trkpt>
      <trkpt lat="51.647228" lon="7.234300">
        <ele>77.767219</ele>
        <time>2025-08-12T09:57:34.791Z</time>
      </trkpt>
      <trkpt lat="51.647499" lon="7.234711">
        <ele>77.687910</ele>
        <time>2025-08-12T09:57:38.934Z</time>
      </trkpt>
      <trkpt lat="51.647881" lon="7.235418">
        <ele>77.320528</ele>
        <time>2025-08-12T09:57:44.667Z</time>
      </trkpt>
      <trkpt lat="51.648002" lon="7.235701">
        <ele>77.185845</ele>
        <time>2025-08-12T09:57:46.632Z</time>
      </trkpt>
      <trkpt lat="51.648135" lon="7.236094">
        <ele>77.010418</ele>
        <time>2025-08-12T09:57:49.287Z</time>
      </trkpt>
      <trkpt lat="51.648270" lon="7.236464">
        <ele>76.842212</ele>
        <time>2025-08-12T09:57:51.989Z</time>
      </trkpt>
      <trkpt lat="51.648425" lon="7.236980">
        <ele>76.813825</ele>
        <time>2025-08-12T09:57:55.784Z</time>
      </trkpt>
      <trkpt lat="51.648624" lon="7.238001">
        <ele>77.092304</ele>
        <time>2025-08-12T09:58:03.761Z</time>
      </trkpt>
      <trkpt lat="51.648651" lon="7.238340">
        <ele>77.181240</ele>
        <time>2025-08-12T09:58:06.552Z</time>
      </trkpt>
      <trkpt lat="51.648669" lon="7.238738">
        <ele>77.285080</ele>
        <time>2025-08-12T09:58:10.103Z</time>
      </trkpt>
      <trkpt lat="51.648706" lon="7.239323">
        <ele>77.438094</ele>
        <time>2025-08-12T09:58:15.676Z</time>
      </trkpt>
      <trkpt lat="51.648775" lon="7.240495">
        <ele>78.715314</ele>
        <time>2025-08-12T09:58:27.901Z</time>
      </trkpt>
      <trkpt lat="51.648850" lon="7.241666">
        <ele>80.189663</ele>
        <time>2025-08-12T09:58:41.868Z</time>
      </trkpt>
      <trkpt lat="51.648874" lon="7.242128">
        <ele>80.770293</ele>
        <time>2025-08-12T09:58:47.447Z</time>
      </trkpt>
      <trkpt lat="51.649020" lon="7.244389">
        <ele>84.560665</ele>
        <time>2025-08-12T09:59:15.141Z</time>
      </trkpt>
      <trkpt lat="51.649021" lon="7.244517">
        <ele>84.781556</ele>
        <time>2025-08-12T09:59:16.839Z</time>
      </trkpt>
      <trkpt lat="51.649023" lon="7.244858">
        <ele>85.370001</ele>
        <time>2025-08-12T09:59:21.491Z</time>
      </trkpt>
      <trkpt lat="51.649183" lon="7.245116">
        <ele>85.999441</ele>
        <time>2025-08-12T09:59:27.677Z</time>
      </trkpt>
      <trkpt lat="51.649197" lon="7.245138">
        <ele>86.053820</ele>
        <time>2025-08-12T09:59:28.216Z</time>
      </trkpt>
      <trkpt lat="51.649476" lon="7.245589">
        <ele>87.604425</ele>
        <time>2025-08-12T09:59:39.588Z</time>
      </trkpt>
      <trkpt lat="51.650157" lon="7.246705">
        <ele>91.489282</ele>
        <time>2025-08-12T10:00:08.523Z</time>
      </trkpt>
      <trkpt lat="51.650214" lon="7.246811">
        <ele>91.837414</ele>
        <time>2025-08-12T10:00:11.159Z</time>
      </trkpt>
      <trkpt lat="51.650529" lon="7.247473">
        <ele>93.725650</ele>
        <time>2025-08-12T10:00:26.641Z</time>
      </trkpt>
      <trkpt lat="51.651004" lon="7.248604">
        <ele>96.069628</ele>
        <time>2025-08-12T10:00:49.061Z</time>
      </trkpt>
      <trkpt lat="51.651499" lon="7.249800">
        <ele>98.292698</ele>
        <time>2025-08-12T10:01:09.291Z</time>
      </trkpt>
      <trkpt lat="51.651797" lon="7.250307">
        <ele>98.294593</ele>
        <time>2025-08-12T10:01:17.520Z</time>
      </trkpt>
      <trkpt lat="51.652066" lon="7.250707">
        <ele>98.296195</ele>
        <time>2025-08-12T10:01:23.867Z</time>
      </trkpt>
      <trkpt lat="51.652612" lon="7.251192">
        <ele>98.298923</ele>
        <time>2025-08-12T10:01:33.227Z</time>
      </trkpt>
      <trkpt lat="51.653146" lon="7.251926">
        <ele>97.759975</ele>
        <time>2025-08-12T10:01:42.343Z</time>
      </trkpt>
      <trkpt lat="51.653278" lon="7.252101">
        <ele>97.537154</ele>
        <time>2025-08-12T10:01:44.509Z</time>
      </trkpt>
      <trkpt lat="51.653398" lon="7.252258">
        <ele>97.335660</ele>
        <time>2025-08-12T10:01:46.465Z</time>
      </trkpt>
      <trkpt lat="51.653505" lon="7.252397">
        <ele>97.156499</ele>
        <time>2025-08-12T10:01:48.211Z</time>
      </trkpt>
      <trkpt lat="51.653650" lon="7.252592">
        <ele>96.910308</ele>
        <time>2025-08-12T10:01:50.633Z</time>
      </trkpt>
      <trkpt lat="51.653787" lon="7.252764">
        <ele>96.683916</ele>
        <time>2025-08-12T10:01:52.899Z</time>
      </trkpt>
      <trkpt lat="51.654085" lon="7.253125">
        <ele>96.197926</ele>
        <time>2025-08-12T10:01:57.888Z</time>
      </trkpt>
      <trkpt lat="51.654311" lon="7.253398">
        <ele>95.996345</ele>
        <time>2025-08-12T10:02:01.914Z</time>
      </trkpt>
      <trkpt lat="51.655760" lon="7.254563">
        <ele>96.686124</ele>
        <time>2025-08-12T10:02:31.551Z</time>
      </trkpt>
      <trkpt lat="51.656546" lon="7.255194">
        <ele>97.878896</ele>
        <time>2025-08-12T10:02:48.315Z</time>
      </trkpt>
      <trkpt lat="51.657858" lon="7.256349">
        <ele>100.442439</ele>
        <time>2025-08-12T10:03:21.486Z</time>
      </trkpt>
      <trkpt lat="51.658197" lon="7.256720">
        <ele>101.361934</ele>
        <time>2025-08-12T10:03:32.111Z</time>
      </trkpt>
      <trkpt lat="51.658728" lon="7.257412">
        <ele>102.894228</ele>
        <time>2025-08-12T10:03:49.326Z</time>
      </trkpt>
      <trkpt lat="51.659559" lon="7.258624">
        <ele>103.547630</ele>
        <time>2025-08-12T10:04:11.097Z</time>
      </trkpt>
      <trkpt lat="51.661020" lon="7.260675">
        <ele>103.547969</ele>
        <time>2025-08-12T10:04:38.331Z</time>
      </trkpt>
      <trkpt lat="51.661573" lon="7.261544">
        <ele>103.449768</ele>
        <time>2025-08-12T10:04:52.141Z</time>
      </trkpt>
      <trkpt lat="51.661826" lon="7.262054">
        <ele>103.974608</ele>
        <time>2025-08-12T10:05:00.478Z</time>
      </trkpt>
      <trkpt lat="51.662092" lon="7.262845">
        <ele>104.697738</ele>
        <time>2025-08-12T10:05:12.704Z</time>
      </trkpt>
      <trkpt lat="51.662190" lon="7.263304">
        <ele>105.087871</ele>
        <time>2025-08-12T10:05:19.491Z</time>
      </trkpt>
      <trkpt lat="51.662226" lon="7.263483">
        <ele>105.239103</ele>
        <time>2025-08-12T10:05:22.027Z</time>
      </trkpt>
      <trkpt lat="51.662441" lon="7.264951">
        <ele>105.488016</ele>
        <time>2025-08-12T10:05:39.431Z</time>
      </trkpt>
      <trkpt lat="51.662498" lon="7.266720">
        <ele>104.937465</ele>
        <time>2025-08-12T10:05:54.787Z</time>
      </trkpt>
      <trkpt lat="51.662516" lon="7.267051">
        <ele>104.803472</ele>
        <time>2025-08-12T10:05:57.415Z</time>
      </trkpt>
      <trkpt lat="51.662582" lon="7.268221">
        <ele>103.910370</ele>
        <time>2025-08-12T10:06:06.866Z</time>
      </trkpt>
      <trkpt lat="51.662587" lon="7.268329">
        <ele>103.828040</ele>
        <time>2025-08-12T10:06:07.750Z</time>
      </trkpt>
      <trkpt lat="51.662677" lon="7.270182">
        <ele>102.603553</ele>
        <time>2025-08-12T10:06:23.644Z</time>
      </trkpt>
      <trkpt lat="51.662711" lon="7.271105">
        <ele>102.461912</ele>
        <time>2025-08-12T10:06:32.512Z</time>
      </trkpt>
      <trkpt lat="51.662790" lon="7.273237">
        <ele>101.696954</ele>
        <time>2025-08-12T10:06:54.609Z</time>
      </trkpt>
      <trkpt lat="51.662864" lon="7.273684">
        <ele>101.196279</ele>
        <time>2025-08-12T10:06:58.617Z</time>
      </trkpt>
      <trkpt lat="51.663048" lon="7.274789">
        <ele>99.958115</ele>
        <time>2025-08-12T10:07:07.551Z</time>
      </trkpt>
      <trkpt lat="51.663406" lon="7.275998">
        <ele>98.424149</ele>
        <time>2025-08-12T10:07:17.247Z</time>
      </trkpt>
      <trkpt lat="51.663784" lon="7.276800">
        <ele>97.170461</ele>
        <time>2025-08-12T10:07:24.821Z</time>
      </trkpt>
      <trkpt lat="51.663860" lon="7.276923">
        <ele>96.954374</ele>
        <time>2025-08-12T10:07:25.774Z</time>
      </trkpt>
      <trkpt lat="51.664446" lon="7.277876">
        <ele>95.363478</ele>
        <time>2025-08-12T10:07:33.773Z</time>
      </trkpt>
      <trkpt lat="51.665345" lon="7.278831">
        <ele>94.179088</ele>
        <time>2025-08-12T10:07:44.370Z</time>
      </trkpt>
      <trkpt lat="51.665403" lon="7.278894">
        <ele>94.102152</ele>
        <time>2025-08-12T10:07:45.067Z</time>
      </trkpt>
      <trkpt lat="51.665842" lon="7.279383">
        <ele>93.515146</ele>
        <time>2025-08-12T10:07:50.088Z</time>
      </trkpt>
      <trkpt lat="51.666736" lon="7.280379">
        <ele>92.198234</ele>
        <time>2025-08-12T10:08:00.439Z</time>
      </trkpt>
      <trkpt lat="51.667436" lon="7.281160">
        <ele>91.042556</ele>
        <time>2025-08-12T10:08:08.753Z</time>
      </trkpt>
      <trkpt lat="51.668126" lon="7.282065">
        <ele>88.965424</ele>
        <time>2025-08-12T10:08:16.519Z</time>
      </trkpt>
      <trkpt lat="51.668726" lon="7.282917">
        <ele>87.098354</ele>
        <time>2025-08-12T10:08:23.054Z</time>
      </trkpt>
      <trkpt lat="51.669163" lon="7.283618">
        <ele>85.805570</ele>
        <time>2025-08-12T10:08:28.096Z</time>
      </trkpt>
      <trkpt lat="51.669496" lon="7.284218">
        <ele>84.758575</ele>
        <time>2025-08-12T10:08:32.385Z</time>
      </trkpt>
      <trkpt lat="51.669817" lon="7.284835">
        <ele>83.711354</ele>
        <time>2025-08-12T10:08:36.965Z</time>
      </trkpt>
      <trkpt lat="51.670626" lon="7.286663">
        <ele>82.266356</ele>
        <time>2025-08-12T10:08:51.319Z</time>
      </trkpt>
      <trkpt lat="51.670827" lon="7.287189">
        <ele>81.930892</ele>
        <time>2025-08-12T10:08:55.245Z</time>
      </trkpt>
      <trkpt lat="51.671540" lon="7.289053">
        <ele>80.097574</ele>
        <time>2025-08-12T10:09:08.037Z</time>
      </trkpt>
      <trkpt lat="51.671826" lon="7.289745">
        <ele>79.357337</ele>
        <time>2025-08-12T10:09:12.731Z</time>
      </trkpt>
      <trkpt lat="51.672086" lon="7.290224">
        <ele>78.639142</ele>
        <time>2025-08-12T10:09:16.219Z</time>
      </trkpt>
      <trkpt lat="51.672232" lon="7.290492">
        <ele>78.193908</ele>
        <time>2025-08-12T10:09:18.154Z</time>
      </trkpt>
      <trkpt lat="51.672727" lon="7.291202">
        <ele>76.860566</ele>
        <time>2025-08-12T10:09:23.968Z</time>
      </trkpt>
      <trkpt lat="51.673214" lon="7.291780">
        <ele>75.643557</ele>
        <time>2025-08-12T10:09:29.204Z</time>
      </trkpt>
      <trkpt lat="51.673232" lon="7.291797">
        <ele>75.601574</ele>
        <time>2025-08-12T10:09:29.385Z</time>
      </trkpt>
      <trkpt lat="51.673680" lon="7.292207">
        <ele>74.900331</ele>
        <time>2025-08-12T10:09:33.788Z</time>
      </trkpt>
      <trkpt lat="51.674452" lon="7.292737">
        <ele>73.788133</ele>
        <time>2025-08-12T10:09:41.577Z</time>
      </trkpt>
      <trkpt lat="51.675342" lon="7.293210">
        <ele>73.250392</ele>
        <time>2025-08-12T10:09:55.820Z</time>
      </trkpt>
      <trkpt lat="51.675828" lon="7.293455">
        <ele>73.345462</ele>
        <time>2025-08-12T10:10:05.524Z</time>
      </trkpt>
      <trkpt lat="51.676680" lon="7.293886">
        <ele>73.471372</ele>
        <time>2025-08-12T10:10:21.089Z</time>
      </trkpt>
      <trkpt lat="51.677993" lon="7.294561">
        <ele>72.917006</ele>
        <time>2025-08-12T10:10:41.690Z</time>
      </trkpt>
      <trkpt lat="51.678845" lon="7.295007">
        <ele>71.887253</ele>
        <time>2025-08-12T10:10:54.505Z</time>
      </trkpt>
      <trkpt lat="51.679049" lon="7.295114">
        <ele>71.537230</ele>
        <time>2025-08-12T10:10:57.448Z</time>
      </trkpt>
      <trkpt lat="51.679423" lon="7.295309">
        <ele>70.895886</ele>
        <time>2025-08-12T10:11:02.654Z</time>
      </trkpt>
      <trkpt lat="51.680622" lon="7.295802">
        <ele>68.204558</ele>
        <time>2025-08-12T10:11:17.567Z</time>
      </trkpt>
      <trkpt lat="51.681507" lon="7.295905">
        <ele>65.746951</ele>
        <time>2025-08-12T10:11:27.974Z</time>
      </trkpt>
      <trkpt lat="51.683120" lon="7.296050">
        <ele>61.705541</ele>
        <time>2025-08-12T10:11:47.639Z</time>
      </trkpt>
      <trkpt lat="51.685255" lon="7.296216">
        <ele>56.703057</ele>
        <time>2025-08-12T10:12:14.136Z</time>
      </trkpt>
      <trkpt lat="51.686173" lon="7.296322">
        <ele>54.848327</ele>
        <time>2025-08-12T10:12:25.253Z</time>
      </trkpt>
      <trkpt lat="51.688365" lon="7.297030">
        <ele>51.252999</ele>
        <time>2025-08-12T10:12:54.541Z</time>
      </trkpt>
      <trkpt lat="51.688934" lon="7.297227">
        <ele>50.491378</ele>
        <time>2025-08-12T10:13:03.030Z</time>
      </trkpt>
      <trkpt lat="51.689696" lon="7.297520">
        <ele>49.230654</ele>
        <time>2025-08-12T10:13:13.540Z</time>
      </trkpt>
      <trkpt lat="51.690319" lon="7.297841">
        <ele>48.171792</ele>
        <time>2025-08-12T10:13:21.824Z</time>
      </trkpt>
      <trkpt lat="51.691238" lon="7.298478">
        <ele>46.649130</ele>
        <time>2025-08-12T10:13:34.384Z</time>
      </trkpt>
      <trkpt lat="51.692385" lon="7.299519">
        <ele>44.769749</ele>
        <time>2025-08-12T10:13:52.445Z</time>
      </trkpt>
      <trkpt lat="51.692583" lon="7.299703">
        <ele>44.512199</ele>
        <time>2025-08-12T10:13:55.503Z</time>
      </trkpt>
      <trkpt lat="51.693413" lon="7.300474">
        <ele>43.432680</ele>
        <time>2025-08-12T10:14:08.279Z</time>
      </trkpt>
      <trkpt lat="51.693475" lon="7.300531">
        <ele>43.352247</ele>
        <time>2025-08-12T10:14:09.229Z</time>
      </trkpt>
      <trkpt lat="51.694978" lon="7.301956">
        <ele>42.342289</ele>
        <time>2025-08-12T10:14:34.594Z</time>
      </trkpt>
      <trkpt lat="51.695546" lon="7.302625">
        <ele>42.212770</ele>
        <time>2025-08-12T10:14:46.393Z</time>
      </trkpt>
      <trkpt lat="51.695833" lon="7.303009">
        <ele>42.308702</ele>
        <time>2025-08-12T10:14:53.029Z</time>
      </trkpt>
      <trkpt lat="51.696736" lon="7.304425">
        <ele>42.611930</ele>
        <time>2025-08-12T10:15:14.782Z</time>
      </trkpt>
      <trkpt lat="51.697189" lon="7.305230">
        <ele>42.592219</ele>
        <time>2025-08-12T10:15:25.051Z</time>
      </trkpt>
      <trkpt lat="51.697270" lon="7.305385">
        <ele>42.588544</ele>
        <time>2025-08-12T10:15:27.071Z</time>
      </trkpt>
      <trkpt lat="51.697327" lon="7.305504">
        <ele>42.585818</ele>
        <time>2025-08-12T10:15:28.582Z</time>
      </trkpt>
      <trkpt lat="51.697653" lon="7.306184">
        <ele>42.570233</ele>
        <time>2025-08-12T10:15:37.147Z</time>
      </trkpt>
      <trkpt lat="51.697703" lon="7.306308">
        <ele>42.567552</ele>
        <time>2025-08-12T10:15:38.625Z</time>
      </trkpt>
      <trkpt lat="51.697916" lon="7.306895">
        <ele>42.611848</ele>
        <time>2025-08-12T10:15:45.405Z</time>
      </trkpt>
      <trkpt lat="51.698109" lon="7.307548">
        <ele>42.718082</ele>
        <time>2025-08-12T10:15:53.151Z</time>
      </trkpt>
      <trkpt lat="51.698216" lon="7.308025">
        <ele>42.792573</ele>
        <time>2025-08-12T10:15:58.847Z</time>
      </trkpt>
      <trkpt lat="51.698308" lon="7.308709">
        <ele>42.895351</ele>
        <time>2025-08-12T10:16:06.326Z</time>
      </trkpt>
      <trkpt lat="51.698540" lon="7.308134">
        <ele>42.985717</ele>
        <time>2025-08-12T10:16:11.386Z</time>
      </trkpt>
      <trkpt lat="51.698865" lon="7.307433">
        <ele>42.957653</ele>
        <time>2025-08-12T10:16:17.916Z</time>
      </trkpt>
      <trkpt lat="51.699207" lon="7.306671">
        <ele>42.927492</ele>
        <time>2025-08-12T10:16:25.065Z</time>
      </trkpt>
      <trkpt lat="51.700914" lon="7.302847">
        <ele>42.184801</ele>
        <time>2025-08-12T10:16:57.307Z</time>
      </trkpt>
      <trkpt lat="51.701387" lon="7.301980">
        <ele>41.949598</ele>
        <time>2025-08-12T10:17:05.039Z</time>
      </trkpt>
      <trkpt lat="51.702180" lon="7.300859">
        <ele>41.756608</ele>
        <time>2025-08-12T10:17:16.638Z</time>
      </trkpt>
      <trkpt lat="51.703120" lon="7.299556">
        <ele>41.765750</ele>
        <time>2025-08-12T10:17:31.502Z</time>
      </trkpt>
      <trkpt lat="51.704169" lon="7.298102">
        <ele>42.196897</ele>
        <time>2025-08-12T10:17:49.361Z</time>
      </trkpt>
      <trkpt lat="51.705220" lon="7.296652">
        <ele>42.785086</ele>
        <time>2025-08-12T10:18:07.987Z</time>
      </trkpt>
      <trkpt lat="51.706311" lon="7.295126">
        <ele>43.308283</ele>
        <time>2025-08-12T10:18:27.322Z</time>
      </trkpt>
      <trkpt lat="51.707483" lon="7.292739">
        <ele>43.596288</ele>
        <time>2025-08-12T10:18:49.761Z</time>
      </trkpt>
      <trkpt lat="51.707887" lon="7.291904">
        <ele>43.701995</ele>
        <time>2025-08-12T10:18:57.466Z</time>
      </trkpt>
      <trkpt lat="51.709503" lon="7.288617">
        <ele>44.649236</ele>
        <time>2025-08-12T10:19:32.387Z</time>
      </trkpt>
      <trkpt lat="51.709941" lon="7.287661">
        <ele>44.705322</ele>
        <time>2025-08-12T10:19:41.662Z</time>
      </trkpt>
      <trkpt lat="51.710906" lon="7.285171">
        <ele>44.549643</ele>
        <time>2025-08-12T10:20:02.237Z</time>
      </trkpt>
      <trkpt lat="51.711215" lon="7.284355">
        <ele>44.422999</ele>
        <time>2025-08-12T10:20:08.772Z</time>
      </trkpt>
      <trkpt lat="51.712001" lon="7.282212">
        <ele>44.212289</ele>
        <time>2025-08-12T10:20:26.090Z</time>
      </trkpt>
      <trkpt lat="51.713152" lon="7.279123">
        <ele>44.359721</ele>
        <time>2025-08-12T10:20:53.395Z</time>
      </trkpt>
      <trkpt lat="51.713409" lon="7.278308">
        <ele>44.523912</ele>
        <time>2025-08-12T10:21:00.639Z</time>
      </trkpt>
      <trkpt lat="51.713649" lon="7.277407">
        <ele>44.702281</ele>
        <time>2025-08-12T10:21:08.570Z</time>
      </trkpt>
      <trkpt lat="51.714072" lon="7.275399">
        <ele>44.962590</ele>
        <time>2025-08-12T10:21:25.455Z</time>
      </trkpt>
      <trkpt lat="51.714086" lon="7.275322">
        <ele>44.967985</ele>
        <time>2025-08-12T10:21:26.079Z</time>
      </trkpt>
      <trkpt lat="51.714454" lon="7.273453">
        <ele>45.074403</ele>
        <time>2025-08-12T10:21:40.427Z</time>
      </trkpt>
      <trkpt lat="51.715063" lon="7.270364">
        <ele>44.991252</ele>
        <time>2025-08-12T10:22:03.498Z</time>
      </trkpt>
      <trkpt lat="51.715324" lon="7.268966">
        <ele>45.066672</ele>
        <time>2025-08-12T10:22:14.963Z</time>
      </trkpt>
      <trkpt lat="51.715336" lon="7.268899">
        <ele>45.070275</ele>
        <time>2025-08-12T10:22:15.491Z</time>
      </trkpt>
      <trkpt lat="51.715523" lon="7.267637">
        <ele>45.010968</ele>
        <time>2025-08-12T10:22:25.333Z</time>
      </trkpt>
      <trkpt lat="51.716860" lon="7.255907">
        <ele>42.699992</ele>
        <time>2025-08-12T10:23:45.806Z</time>
      </trkpt>
      <trkpt lat="51.716932" lon="7.254848">
        <ele>42.700799</ele>
        <time>2025-08-12T10:23:53.737Z</time>
      </trkpt>
      <trkpt lat="51.716917" lon="7.254252">
        <ele>42.701252</ele>
        <time>2025-08-12T10:23:58.581Z</time>
      </trkpt>
      <trkpt lat="51.716878" lon="7.253820">
        <ele>42.701717</ele>
        <time>2025-08-12T10:24:02.031Z</time>
      </trkpt>
      <trkpt lat="51.716817" lon="7.253439">
        <ele>42.712436</ele>
        <time>2025-08-12T10:24:04.989Z</time>
      </trkpt>
      <trkpt lat="51.716802" lon="7.253349">
        <ele>42.714975</ele>
        <time>2025-08-12T10:24:05.710Z</time>
      </trkpt>
      <trkpt lat="51.716703" lon="7.252934">
        <ele>42.727089</ele>
        <time>2025-08-12T10:24:08.916Z</time>
      </trkpt>
      <trkpt lat="51.716469" lon="7.252278">
        <ele>42.747710</ele>
        <time>2025-08-12T10:24:14.296Z</time>
      </trkpt>
      <trkpt lat="51.716309" lon="7.251929">
        <ele>42.759537</ele>
        <time>2025-08-12T10:24:17.470Z</time>
      </trkpt>
      <trkpt lat="51.715883" lon="7.251259">
        <ele>42.841594</ele>
        <time>2025-08-12T10:24:24.578Z</time>
      </trkpt>
      <trkpt lat="51.715798" lon="7.251148">
        <ele>42.899872</ele>
        <time>2025-08-12T10:24:25.982Z</time>
      </trkpt>
      <trkpt lat="51.715277" lon="7.250503">
        <ele>43.249853</ele>
        <time>2025-08-12T10:24:34.693Z</time>
      </trkpt>
      <trkpt lat="51.715133" lon="7.250291">
        <ele>43.353741</ele>
        <time>2025-08-12T10:24:37.555Z</time>
      </trkpt>
      <trkpt lat="51.715081" lon="7.250213">
        <ele>43.391579</ele>
        <time>2025-08-12T10:24:38.635Z</time>
      </trkpt>
      <trkpt lat="51.714957" lon="7.249869">
        <ele>43.523009</ele>
        <time>2025-08-12T10:24:42.371Z</time>
      </trkpt>
      <trkpt lat="51.714904" lon="7.249449">
        <ele>43.664558</ele>
        <time>2025-08-12T10:24:46.222Z</time>
      </trkpt>
      <trkpt lat="51.714946" lon="7.248987">
        <ele>43.769231</ele>
        <time>2025-08-12T10:24:50.187Z</time>
      </trkpt>
      <trkpt lat="51.715039" lon="7.248698">
        <ele>43.809686</ele>
        <time>2025-08-12T10:24:52.803Z</time>
      </trkpt>
      <trkpt lat="51.715060" lon="7.248634">
        <ele>43.818683</ele>
        <time>2025-08-12T10:24:53.373Z</time>
      </trkpt>
      <trkpt lat="51.715266" lon="7.248282">
        <ele>43.878834</ele>
        <time>2025-08-12T10:24:57.072Z</time>
      </trkpt>
      <trkpt lat="51.715351" lon="7.248102">
        <ele>43.906949</ele>
        <time>2025-08-12T10:24:58.808Z</time>
      </trkpt>
      <trkpt lat="51.715414" lon="7.247893">
        <ele>43.935822</ele>
        <time>2025-08-12T10:25:00.583Z</time>
      </trkpt>
      <trkpt lat="51.715550" lon="7.247185">
        <ele>44.027904</ele>
        <time>2025-08-12T10:25:06.165Z</time>
      </trkpt>
      <trkpt lat="51.715742" lon="7.246131">
        <ele>44.077735</ele>
        <time>2025-08-12T10:25:14.258Z</time>
      </trkpt>
      <trkpt lat="51.715882" lon="7.245361">
        <ele>44.043261</ele>
        <time>2025-08-12T10:25:20.097Z</time>
      </trkpt>
      <trkpt lat="51.715936" lon="7.244870">
        <ele>44.021839</ele>
        <time>2025-08-12T10:25:23.750Z</time>
      </trkpt>
      <trkpt lat="51.715950" lon="7.244164">
        <ele>43.991495</ele>
        <time>2025-08-12T10:25:28.992Z</time>
      </trkpt>
      <trkpt lat="51.715948" lon="7.244095">
        <ele>43.988527</ele>
        <time>2025-08-12T10:25:29.507Z</time>
      </trkpt>
      <trkpt lat="51.715922" lon="7.242981">
        <ele>43.628573</ele>
        <time>2025-08-12T10:25:37.082Z</time>
      </trkpt>
      <trkpt lat="51.715904" lon="7.242126">
        <ele>43.260820</ele>
        <time>2025-08-12T10:25:42.296Z</time>
      </trkpt>
      <trkpt lat="51.715900" lon="7.241577">
        <ele>43.024803</ele>
        <time>2025-08-12T10:25:45.595Z</time>
      </trkpt>
      <trkpt lat="51.715919" lon="7.241261">
        <ele>42.888325</ele>
        <time>2025-08-12T10:25:47.514Z</time>
      </trkpt>
      <trkpt lat="51.715987" lon="7.240831">
        <ele>42.725946</ele>
        <time>2025-08-12T10:25:50.215Z</time>
      </trkpt>
      <trkpt lat="51.716066" lon="7.240521">
        <ele>42.719269</ele>
        <time>2025-08-12T10:25:52.285Z</time>
      </trkpt>
      <trkpt lat="51.716130" lon="7.240335">
        <ele>42.715031</ele>
        <time>2025-08-12T10:25:53.601Z</time>
      </trkpt>
      <trkpt lat="51.717614" lon="7.236004">
        <ele>43.111431</ele>
        <time>2025-08-12T10:26:32.596Z</time>
      </trkpt>
      <trkpt lat="51.717816" lon="7.235436">
        <ele>43.261765</ele>
        <time>2025-08-12T10:26:37.847Z</time>
      </trkpt>
      <trkpt lat="51.718081" lon="7.234739">
        <ele>43.479539</ele>
        <time>2025-08-12T10:26:44.250Z</time>
      </trkpt>
      <trkpt lat="51.718267" lon="7.234422">
        <ele>43.595806</ele>
        <time>2025-08-12T10:26:47.917Z</time>
      </trkpt>
      <trkpt lat="51.718364" lon="7.234260">
        <ele>43.655801</ele>
        <time>2025-08-12T10:26:49.900Z</time>
      </trkpt>
      <trkpt lat="51.718683" lon="7.233715">
        <ele>43.855461</ele>
        <time>2025-08-12T10:26:56.637Z</time>
      </trkpt>
      <trkpt lat="51.718879" lon="7.233329">
        <ele>43.942393</ele>
        <time>2025-08-12T10:27:00.768Z</time>
      </trkpt>
      <trkpt lat="51.719140" lon="7.232701">
        <ele>43.999154</ele>
        <time>2025-08-12T10:27:06.321Z</time>
      </trkpt>
      <trkpt lat="51.719191" lon="7.232563">
        <ele>44.011215</ele>
        <time>2025-08-12T10:27:07.466Z</time>
      </trkpt>
      <trkpt lat="51.719717" lon="7.231247">
        <ele>44.128765</ele>
        <time>2025-08-12T10:27:18.887Z</time>
      </trkpt>
      <trkpt lat="51.720139" lon="7.230228">
        <ele>44.110648</ele>
        <time>2025-08-12T10:27:28.167Z</time>
      </trkpt>
      <trkpt lat="51.720275" lon="7.229900">
        <ele>44.098716</ele>
        <time>2025-08-12T10:27:31.321Z</time>
      </trkpt>
      <trkpt lat="51.720564" lon="7.229155">
        <ele>44.072141</ele>
        <time>2025-08-12T10:27:37.976Z</time>
      </trkpt>
      <trkpt lat="51.720659" lon="7.228709">
        <ele>44.057883</ele>
        <time>2025-08-12T10:27:41.327Z</time>
      </trkpt>
      <trkpt lat="51.720830" lon="7.227661">
        <ele>43.608926</ele>
        <time>2025-08-12T10:27:48.025Z</time>
      </trkpt>
      <trkpt lat="51.720884" lon="7.227329">
        <ele>43.451503</ele>
        <time>2025-08-12T10:27:50.003Z</time>
      </trkpt>
      <trkpt lat="51.720946" lon="7.226941">
        <ele>43.267734</ele>
        <time>2025-08-12T10:27:52.418Z</time>
      </trkpt>
      <trkpt lat="51.721086" lon="7.226810">
        <ele>43.147935</ele>
        <time>2025-08-12T10:27:54.073Z</time>
      </trkpt>
      <trkpt lat="51.721294" lon="7.226755">
        <ele>42.991897</ele>
        <time>2025-08-12T10:27:56.306Z</time>
      </trkpt>
      <trkpt lat="51.721485" lon="7.226992">
        <ele>42.813549</ele>
        <time>2025-08-12T10:27:58.953Z</time>
      </trkpt>
      <trkpt lat="51.721555" lon="7.227075">
        <ele>42.749249</ele>
        <time>2025-08-12T10:27:59.872Z</time>
      </trkpt>
      <trkpt lat="51.721485" lon="7.226992">
        <ele>42.661380</ele>
        <time>2025-08-12T10:28:00.807Z</time>
      </trkpt>
      <trkpt lat="51.721294" lon="7.226755">
        <ele>42.372342</ele>
        <time>2025-08-12T10:28:03.290Z</time>
      </trkpt>
      <trkpt lat="51.721135" lon="7.226544">
        <ele>42.125388</ele>
        <time>2025-08-12T10:28:05.334Z</time>
      </trkpt>
      <trkpt lat="51.721111" lon="7.226690">
        <ele>42.013117</ele>
        <time>2025-08-12T10:28:06.254Z</time>
      </trkpt>
      <trkpt lat="51.721086" lon="7.226810">
        <ele>41.919017</ele>
        <time>2025-08-12T10:28:07.034Z</time>
      </trkpt>
      <trkpt lat="51.721018" lon="7.226996">
        <ele>41.758493</ele>
        <time>2025-08-12T10:28:08.379Z</time>
      </trkpt>
      <trkpt lat="51.721130" lon="7.226845">
        <ele>41.583413</ele>
        <time>2025-08-12T10:28:09.847Z</time>
      </trkpt>
      <trkpt lat="51.721275" lon="7.226844">
        <ele>41.409442</ele>
        <time>2025-08-12T10:28:11.293Z</time>
      </trkpt>
      <trkpt lat="51.721992" lon="7.227685">
        <ele>40.347684</ele>
        <time>2025-08-12T10:28:19.129Z</time>
      </trkpt>
      <trkpt lat="51.722630" lon="7.228495">
        <ele>39.380982</ele>
        <time>2025-08-12T10:28:26.414Z</time>
      </trkpt>
      <trkpt lat="51.722722" lon="7.228627">
        <ele>39.234387</ele>
        <time>2025-08-12T10:28:27.606Z</time>
      </trkpt>
      <trkpt lat="51.724367" lon="7.230722">
        <ele>38.115959</ele>
        <time>2025-08-12T10:28:50.654Z</time>
      </trkpt>
      <trkpt lat="51.725069" lon="7.231603">
        <ele>38.478277</ele>
        <time>2025-08-12T10:29:00.875Z</time>
      </trkpt>
      <trkpt lat="51.726581" lon="7.233571">
        <ele>40.251805</ele>
        <time>2025-08-12T10:29:32.369Z</time>
      </trkpt>
      <trkpt lat="51.728131" lon="7.235572">
        <ele>41.965735</ele>
        <time>2025-08-12T10:30:00.547Z</time>
      </trkpt>
      <trkpt lat="51.730663" lon="7.238832">
        <ele>44.210210</ele>
        <time>2025-08-12T10:30:46.022Z</time>
      </trkpt>
      <trkpt lat="51.731374" lon="7.239751">
        <ele>44.850456</ele>
        <time>2025-08-12T10:30:58.819Z</time>
      </trkpt>
      <trkpt lat="51.732076" lon="7.240630">
        <ele>45.487970</ele>
        <time>2025-08-12T10:31:11.668Z</time>
      </trkpt>
      <trkpt lat="51.732529" lon="7.241105">
        <ele>45.882463</ele>
        <time>2025-08-12T10:31:19.573Z</time>
      </trkpt>
      <trkpt lat="51.732956" lon="7.241457">
        <ele>46.232616</ele>
        <time>2025-08-12T10:31:26.525Z</time>
      </trkpt>
      <trkpt lat="51.733547" lon="7.241786">
        <ele>46.394195</ele>
        <time>2025-08-12T10:31:34.902Z</time>
      </trkpt>
      <trkpt lat="51.733484" lon="7.241853">
        <ele>46.380109</ele>
        <time>2025-08-12T10:31:35.827Z</time>
      </trkpt>
      <trkpt lat="51.733451" lon="7.241887">
        <ele>46.372800</ele>
        <time>2025-08-12T10:31:36.303Z</time>
      </trkpt>
      <trkpt lat="51.732942" lon="7.242031">
        <ele>46.276309</ele>
        <time>2025-08-12T10:31:42.103Z</time>
      </trkpt>
      <trkpt lat="51.728120" lon="7.243606">
        <ele>43.990476</ele>
        <time>2025-08-12T10:32:33.585Z</time>
      </trkpt>
      <trkpt lat="51.727697" lon="7.243728">
        <ele>43.892132</ele>
        <time>2025-08-12T10:32:38.703Z</time>
      </trkpt>
      <trkpt lat="51.727326" lon="7.243832">
        <ele>43.805951</ele>
        <time>2025-08-12T10:32:42.953Z</time>
      </trkpt>
      <trkpt lat="51.727009" lon="7.243978">
        <ele>43.730505</ele>
        <time>2025-08-12T10:32:46.705Z</time>
      </trkpt>
      <trkpt lat="51.726965" lon="7.244014">
        <ele>43.719215</ele>
        <time>2025-08-12T10:32:47.261Z</time>
      </trkpt>
      <trkpt lat="51.726763" lon="7.244237">
        <ele>43.671903</ele>
        <time>2025-08-12T10:32:50.181Z</time>
      </trkpt>
      <trkpt lat="51.726606" lon="7.244536">
        <ele>43.635874</ele>
        <time>2025-08-12T10:32:53.119Z</time>
      </trkpt>
      <trkpt lat="51.726532" lon="7.244777">
        <ele>43.611150</ele>
        <time>2025-08-12T10:32:55.076Z</time>
      </trkpt>
      <trkpt lat="51.726478" lon="7.245143">
        <ele>43.576567</ele>
        <time>2025-08-12T10:32:57.704Z</time>
      </trkpt>
      <trkpt lat="51.726481" lon="7.245493">
        <ele>43.544393</ele>
        <time>2025-08-12T10:33:00.169Z</time>
      </trkpt>
      <trkpt lat="51.726524" lon="7.245778">
        <ele>43.517431</ele>
        <time>2025-08-12T10:33:02.367Z</time>
      </trkpt>
      <trkpt lat="51.726831" lon="7.246834">
        <ele>43.379678</ele>
        <time>2025-08-12T10:33:10.784Z</time>
      </trkpt>
      <trkpt lat="51.726875" lon="7.247092">
        <ele>43.285698</ele>
        <time>2025-08-12T10:33:12.520Z</time>
      </trkpt>
      <trkpt lat="51.726899" lon="7.247419">
        <ele>43.170053</ele>
        <time>2025-08-12T10:33:14.655Z</time>
      </trkpt>
      <trkpt lat="51.726881" lon="7.247845">
        <ele>43.020096</ele>
        <time>2025-08-12T10:33:17.358Z</time>
      </trkpt>
      <trkpt lat="51.726820" lon="7.248203">
        <ele>42.889697</ele>
        <time>2025-08-12T10:33:19.734Z</time>
      </trkpt>
      <trkpt lat="51.726731" lon="7.248546">
        <ele>42.759094</ele>
        <time>2025-08-12T10:33:22.068Z</time>
      </trkpt>
      <trkpt lat="51.726618" lon="7.249259">
        <ele>42.500622</ele>
        <time>2025-08-12T10:33:26.531Z</time>
      </trkpt>
      <trkpt lat="51.726612" lon="7.249977">
        <ele>42.389063</ele>
        <time>2025-08-12T10:33:31.114Z</time>
      </trkpt>
      <trkpt lat="51.727009" lon="7.255550">
        <ele>42.762339</ele>
        <time>2025-08-12T10:34:13.906Z</time>
      </trkpt>
      <trkpt lat="51.727067" lon="7.255933">
        <ele>42.939383</ele>
        <time>2025-08-12T10:34:17.259Z</time>
      </trkpt>
      <trkpt lat="51.727853" lon="7.258904">
        <ele>44.046616</ele>
        <time>2025-08-12T10:34:46.783Z</time>
      </trkpt>
      <trkpt lat="51.727893" lon="7.259050">
        <ele>44.061091</ele>
        <time>2025-08-12T10:34:48.140Z</time>
      </trkpt>
      <trkpt lat="51.728064" lon="7.259682">
        <ele>44.123623</ele>
        <time>2025-08-12T10:34:53.568Z</time>
      </trkpt>
      <trkpt lat="51.728245" lon="7.260382">
        <ele>44.192400</ele>
        <time>2025-08-12T10:34:58.721Z</time>
      </trkpt>
      <trkpt lat="51.728273" lon="7.260561">
        <ele>44.209139</ele>
        <time>2025-08-12T10:34:59.888Z</time>
      </trkpt>
      <trkpt lat="51.728328" lon="7.261112">
        <ele>43.979489</ele>
        <time>2025-08-12T10:35:03.302Z</time>
      </trkpt>
      <trkpt lat="51.728323" lon="7.262576">
        <ele>43.099230</ele>
        <time>2025-08-12T10:35:11.901Z</time>
      </trkpt>
      <trkpt lat="51.728318" lon="7.263109">
        <ele>42.778721</ele>
        <time>2025-08-12T10:35:15.020Z</time>
      </trkpt>
      <trkpt lat="51.728300" lon="7.265577">
        <ele>42.323266</ele>
        <time>2025-08-12T10:35:31.075Z</time>
      </trkpt>
      <trkpt lat="51.728266" lon="7.269816">
        <ele>43.893385</ele>
        <time>2025-08-12T10:36:09.442Z</time>
      </trkpt>
      <trkpt lat="51.728261" lon="7.271420">
        <ele>44.463802</ele>
        <time>2025-08-12T10:36:23.020Z</time>
      </trkpt>
      <trkpt lat="51.728311" lon="7.272204">
        <ele>44.744080</ele>
        <time>2025-08-12T10:36:29.634Z</time>
      </trkpt>
      <trkpt lat="51.728373" lon="7.272719">
        <ele>44.882391</ele>
        <time>2025-08-12T10:36:33.869Z</time>
      </trkpt>
      <trkpt lat="51.728521" lon="7.273492">
        <ele>45.075091</ele>
        <time>2025-08-12T10:36:40.055Z</time>
      </trkpt>
      <trkpt lat="51.728994" lon="7.275414">
        <ele>45.637376</ele>
        <time>2025-08-12T10:36:56.762Z</time>
      </trkpt>
      <trkpt lat="51.729138" lon="7.276232">
        <ele>45.994220</ele>
        <time>2025-08-12T10:37:04.608Z</time>
      </trkpt>
      <trkpt lat="51.729182" lon="7.276922">
        <ele>46.285288</ele>
        <time>2025-08-12T10:37:11.235Z</time>
      </trkpt>
      <trkpt lat="51.729132" lon="7.278136">
        <ele>46.607541</ele>
        <time>2025-08-12T10:37:21.755Z</time>
      </trkpt>
      <trkpt lat="51.729096" lon="7.278697">
        <ele>46.403584</ele>
        <time>2025-08-12T10:37:25.532Z</time>
      </trkpt>
      <trkpt lat="51.729087" lon="7.278837">
        <ele>46.352685</ele>
        <time>2025-08-12T10:37:26.434Z</time>
      </trkpt>
      <trkpt lat="51.729070" lon="7.279161">
        <ele>46.235099</ele>
        <time>2025-08-12T10:37:28.508Z</time>
      </trkpt>
      <trkpt lat="51.729052" lon="7.279571">
        <ele>46.086461</ele>
        <time>2025-08-12T10:37:31.091Z</time>
      </trkpt>
      <trkpt lat="51.729032" lon="7.280593">
        <ele>45.716696</ele>
        <time>2025-08-12T10:37:37.342Z</time>
      </trkpt>
      <trkpt lat="51.729015" lon="7.281455">
        <ele>45.360415</ele>
        <time>2025-08-12T10:37:42.468Z</time>
      </trkpt>
      <trkpt lat="51.728983" lon="7.281781">
        <ele>45.218948</ele>
        <time>2025-08-12T10:37:44.409Z</time>
      </trkpt>
      <trkpt lat="51.728655" lon="7.283310">
        <ele>44.525426</ele>
        <time>2025-08-12T10:37:54.585Z</time>
      </trkpt>
      <trkpt lat="51.728636" lon="7.283371">
        <ele>44.496161</ele>
        <time>2025-08-12T10:37:55.071Z</time>
      </trkpt>
      <trkpt lat="51.728604" lon="7.283460">
        <ele>44.452054</ele>
        <time>2025-08-12T10:37:55.797Z</time>
      </trkpt>
      <trkpt lat="51.728636" lon="7.283371">
        <ele>44.407947</ele>
        <time>2025-08-12T10:37:56.514Z</time>
      </trkpt>
      <trkpt lat="51.728969" lon="7.283732">
        <ele>44.527652</ele>
        <time>2025-08-12T10:38:01.449Z</time>
      </trkpt>
      <trkpt lat="51.729608" lon="7.284466">
        <ele>44.784773</ele>
        <time>2025-08-12T10:38:12.383Z</time>
      </trkpt>
      <trkpt lat="51.730015" lon="7.285010">
        <ele>44.958008</ele>
        <time>2025-08-12T10:38:19.460Z</time>
      </trkpt>
      <trkpt lat="51.730618" lon="7.285832">
        <ele>44.872763</ele>
        <time>2025-08-12T10:38:29.279Z</time>
      </trkpt>
      <trkpt lat="51.730875" lon="7.286081">
        <ele>44.822183</ele>
        <time>2025-08-12T10:38:32.667Z</time>
      </trkpt>
      <trkpt lat="51.731435" lon="7.286580">
        <ele>44.714242</ele>
        <time>2025-08-12T10:38:39.480Z</time>
      </trkpt>
      <trkpt lat="51.732027" lon="7.287106">
        <ele>44.517132</ele>
        <time>2025-08-12T10:38:46.454Z</time>
      </trkpt>
      <trkpt lat="51.732561" lon="7.287501">
        <ele>44.322155</ele>
        <time>2025-08-12T10:38:52.660Z</time>
      </trkpt>
      <trkpt lat="51.732646" lon="7.287626">
        <ele>44.283990</ele>
        <time>2025-08-12T10:38:53.932Z</time>
      </trkpt>
      <trkpt lat="51.732787" lon="7.287731">
        <ele>44.232447</ele>
        <time>2025-08-12T10:38:55.686Z</time>
      </trkpt>
      <trkpt lat="51.732904" lon="7.287755">
        <ele>44.193297</ele>
        <time>2025-08-12T10:38:57.062Z</time>
      </trkpt>
      <trkpt lat="51.732963" lon="7.287815">
        <ele>44.170151</ele>
        <time>2025-08-12T10:38:57.882Z</time>
      </trkpt>
      <trkpt lat="51.733250" lon="7.288107">
        <ele>44.117325</ele>
        <time>2025-08-12T10:39:02.042Z</time>
      </trkpt>
      <trkpt lat="51.733393" lon="7.288253">
        <ele>44.167691</ele>
        <time>2025-08-12T10:39:04.222Z</time>
      </trkpt>
      <trkpt lat="51.733534" lon="7.288341">
        <ele>44.212692</ele>
        <time>2025-08-12T10:39:06.223Z</time>
      </trkpt>
      <trkpt lat="51.734796" lon="7.289021">
        <ele>44.608747</ele>
        <time>2025-08-12T10:39:23.795Z</time>
      </trkpt>
      <trkpt lat="51.735023" lon="7.289084">
        <ele>44.650379</ele>
        <time>2025-08-12T10:39:26.647Z</time>
      </trkpt>
      <trkpt lat="51.735136" lon="7.289083">
        <ele>44.666861</ele>
        <time>2025-08-12T10:39:28.039Z</time>
      </trkpt>
      <trkpt lat="51.735538" lon="7.289090">
        <ele>44.725499</ele>
        <time>2025-08-12T10:39:32.712Z</time>
      </trkpt>
      <trkpt lat="51.736111" lon="7.289230">
        <ele>44.810026</ele>
        <time>2025-08-12T10:39:39.547Z</time>
      </trkpt>
      <trkpt lat="51.736198" lon="7.289296">
        <ele>44.824046</ele>
        <time>2025-08-12T10:39:40.753Z</time>
      </trkpt>
      <trkpt lat="51.736245" lon="7.289203">
        <ele>44.834889</ele>
        <time>2025-08-12T10:39:41.745Z</time>
      </trkpt>
      <trkpt lat="51.736356" lon="7.288918">
        <ele>44.865300</ele>
        <time>2025-08-12T10:39:44.469Z</time>
      </trkpt>
      <trkpt lat="51.736498" lon="7.288565">
        <ele>44.873179</ele>
        <time>2025-08-12T10:39:47.878Z</time>
      </trkpt>
      <trkpt lat="51.736760" lon="7.287951">
        <ele>44.817286</ele>
        <time>2025-08-12T10:39:53.508Z</time>
      </trkpt>
      <trkpt lat="51.736927" lon="7.287358">
        <ele>44.768455</ele>
        <time>2025-08-12T10:39:58.142Z</time>
      </trkpt>
      <trkpt lat="51.736968" lon="7.287197">
        <ele>44.755406</ele>
        <time>2025-08-12T10:39:59.432Z</time>
      </trkpt>
      <trkpt lat="51.737123" lon="7.286566">
        <ele>44.704523</ele>
        <time>2025-08-12T10:40:04.258Z</time>
      </trkpt>
      <trkpt lat="51.737162" lon="7.286443">
        <ele>44.694165</ele>
        <time>2025-08-12T10:40:05.170Z</time>
      </trkpt>
      <trkpt lat="51.737281" lon="7.286170">
        <ele>44.669140</ele>
        <time>2025-08-12T10:40:07.316Z</time>
      </trkpt>
      <trkpt lat="51.737483" lon="7.285870">
        <ele>44.560608</ele>
        <time>2025-08-12T10:40:10.137Z</time>
      </trkpt>
      <trkpt lat="51.737917" lon="7.285261">
        <ele>44.333212</ele>
        <time>2025-08-12T10:40:16.111Z</time>
      </trkpt>
      <trkpt lat="51.738032" lon="7.285051">
        <ele>44.264555</ele>
        <time>2025-08-12T10:40:18.016Z</time>
      </trkpt>
      <trkpt lat="51.738141" lon="7.284724">
        <ele>44.173603</ele>
        <time>2025-08-12T10:40:20.598Z</time>
      </trkpt>
      <trkpt lat="51.738276" lon="7.284121">
        <ele>44.016565</ele>
        <time>2025-08-12T10:40:25.015Z</time>
      </trkpt>
      <trkpt lat="51.738332" lon="7.283672">
        <ele>43.947669</ele>
        <time>2025-08-12T10:40:28.206Z</time>
      </trkpt>
      <trkpt lat="51.738389" lon="7.282659">
        <ele>43.900481</ele>
        <time>2025-08-12T10:40:35.387Z</time>
      </trkpt>
      <trkpt lat="51.738412" lon="7.282578">
        <ele>43.896347</ele>
        <time>2025-08-12T10:40:36.012Z</time>
      </trkpt>
      <trkpt lat="51.738461" lon="7.282523">
        <ele>43.891876</ele>
        <time>2025-08-12T10:40:36.692Z</time>
      </trkpt>
      <trkpt lat="51.738444" lon="7.282407">
        <ele>43.886346</ele>
        <time>2025-08-12T10:40:37.538Z</time>
      </trkpt>
      <trkpt lat="51.738402" lon="7.282387">
        <ele>43.883066</ele>
        <time>2025-08-12T10:40:38.044Z</time>
      </trkpt>
      <trkpt lat="51.738363" lon="7.282369">
        <ele>43.880027</ele>
        <time>2025-08-12T10:40:38.501Z</time>
      </trkpt>
      <trkpt lat="51.738299" lon="7.281755">
        <ele>43.851142</ele>
        <time>2025-08-12T10:40:42.994Z</time>
      </trkpt>
      <trkpt lat="51.738269" lon="7.281117">
        <ele>43.825890</ele>
        <time>2025-08-12T10:40:47.739Z</time>
      </trkpt>
      <trkpt lat="51.738043" lon="7.279659">
        <ele>43.951987</ele>
        <time>2025-08-12T10:40:59.271Z</time>
      </trkpt>
      <trkpt lat="51.738006" lon="7.278851">
        <ele>44.019962</ele>
        <time>2025-08-12T10:41:05.515Z</time>
      </trkpt>
      <trkpt lat="51.738069" lon="7.278025">
        <ele>44.099918</ele>
        <time>2025-08-12T10:41:11.868Z</time>
      </trkpt>
      <trkpt lat="51.738956" lon="7.271555">
        <ele>45.023158</ele>
        <time>2025-08-12T10:42:03.122Z</time>
      </trkpt>
      <trkpt lat="51.739404" lon="7.268276">
        <ele>45.358633</ele>
        <time>2025-08-12T10:42:31.055Z</time>
      </trkpt>
      <trkpt lat="51.740181" lon="7.262636">
        <ele>43.681273</ele>
        <time>2025-08-12T10:43:07.455Z</time>
      </trkpt>
      <trkpt lat="51.740280" lon="7.262665">
        <ele>43.649064</ele>
        <time>2025-08-12T10:43:08.593Z</time>
      </trkpt>
      <trkpt lat="51.741738" lon="7.262625">
        <ele>43.515750</ele>
        <time>2025-08-12T10:43:26.612Z</time>
      </trkpt>
      <trkpt lat="51.743485" lon="7.262577">
        <ele>43.628931</ele>
        <time>2025-08-12T10:43:48.366Z</time>
      </trkpt>
      <trkpt lat="51.743525" lon="7.262576">
        <ele>43.625196</ele>
        <time>2025-08-12T10:43:48.864Z</time>
      </trkpt>
      <trkpt lat="51.743590" lon="7.262576">
        <ele>43.619127</ele>
        <time>2025-08-12T10:43:49.677Z</time>
      </trkpt>
      <trkpt lat="51.743770" lon="7.262567">
        <ele>43.602312</ele>
        <time>2025-08-12T10:43:51.942Z</time>
      </trkpt>
      <trkpt lat="51.743905" lon="7.262560">
        <ele>43.589701</ele>
        <time>2025-08-12T10:43:53.583Z</time>
      </trkpt>
      <trkpt lat="51.743997" lon="7.262555">
        <ele>43.581106</ele>
        <time>2025-08-12T10:43:54.656Z</time>
      </trkpt>
      <trkpt lat="51.744169" lon="7.262547">
        <ele>43.565040</ele>
        <time>2025-08-12T10:43:56.580Z</time>
      </trkpt>
      <trkpt lat="51.744246" lon="7.262543">
        <ele>43.557847</ele>
        <time>2025-08-12T10:43:57.423Z</time>
      </trkpt>
      <trkpt lat="51.744361" lon="7.262538">
        <ele>43.547106</ele>
        <time>2025-08-12T10:43:58.627Z</time>
      </trkpt>
      <trkpt lat="51.744626" lon="7.262518">
        <ele>43.522336</ele>
        <time>2025-08-12T10:44:01.318Z</time>
      </trkpt>
      <trkpt lat="51.744848" lon="7.262381">
        <ele>43.452246</ele>
        <time>2025-08-12T10:44:03.684Z</time>
      </trkpt>
      <trkpt lat="51.745332" lon="7.262153">
        <ele>43.298902</ele>
        <time>2025-08-12T10:44:09.085Z</time>
      </trkpt>
      <trkpt lat="51.745824" lon="7.262049">
        <ele>43.147982</ele>
        <time>2025-08-12T10:44:14.462Z</time>
      </trkpt>
      <trkpt lat="51.746031" lon="7.261873">
        <ele>43.076831</ele>
        <time>2025-08-12T10:44:17.986Z</time>
      </trkpt>
      <trkpt lat="51.746103" lon="7.261810">
        <ele>43.051925</ele>
        <time>2025-08-12T10:44:18.910Z</time>
      </trkpt>
      <trkpt lat="51.746141" lon="7.261670">
        <ele>43.023139</ele>
        <time>2025-08-12T10:44:19.999Z</time>
      </trkpt>
      <trkpt lat="51.746162" lon="7.261428">
        <ele>42.977121</ele>
        <time>2025-08-12T10:44:21.837Z</time>
      </trkpt>
      <trkpt lat="51.746156" lon="7.261314">
        <ele>43.002362</ele>
        <time>2025-08-12T10:44:22.742Z</time>
      </trkpt>
      <trkpt lat="51.746084" lon="7.261126">
        <ele>43.064745</ele>
        <time>2025-08-12T10:44:24.527Z</time>
      </trkpt>
      <trkpt lat="51.745344" lon="7.259127">
        <ele>43.722013</ele>
        <time>2025-08-12T10:44:44.766Z</time>
      </trkpt>
      <trkpt lat="51.744290" lon="7.257792">
        <ele>43.554484</ele>
        <time>2025-08-12T10:45:00.676Z</time>
      </trkpt>
      <trkpt lat="51.744247" lon="7.257695">
        <ele>43.539500</ele>
        <time>2025-08-12T10:45:01.447Z</time>
      </trkpt>
      <trkpt lat="51.744203" lon="7.257146">
        <ele>43.469971</ele>
        <time>2025-08-12T10:45:04.968Z</time>
      </trkpt>
      <trkpt lat="51.744191" lon="7.256635">
        <ele>43.405230</ele>
        <time>2025-08-12T10:45:08.177Z</time>
      </trkpt>
      <trkpt lat="51.744215" lon="7.256170">
        <ele>43.345343</ele>
        <time>2025-08-12T10:45:11.105Z</time>
      </trkpt>
      <trkpt lat="51.744282" lon="7.255794">
        <ele>43.295126</ele>
        <time>2025-08-12T10:45:13.571Z</time>
      </trkpt>
      <trkpt lat="51.744394" lon="7.255462">
        <ele>43.246602</ele>
        <time>2025-08-12T10:45:16.018Z</time>
      </trkpt>
      <trkpt lat="51.744793" lon="7.254680">
        <ele>43.116551</ele>
        <time>2025-08-12T10:45:23.166Z</time>
      </trkpt>
      <trkpt lat="51.745315" lon="7.253672">
        <ele>43.482770</ele>
        <time>2025-08-12T10:45:34.965Z</time>
      </trkpt>
      <trkpt lat="51.745484" lon="7.253209">
        <ele>43.753753</ele>
        <time>2025-08-12T10:45:39.915Z</time>
      </trkpt>
      <trkpt lat="51.745579" lon="7.252557">
        <ele>44.091461</ele>
        <time>2025-08-12T10:45:46.104Z</time>
      </trkpt>
      <trkpt lat="51.745627" lon="7.252322">
        <ele>44.216225</ele>
        <time>2025-08-12T10:45:48.392Z</time>
      </trkpt>
      <trkpt lat="51.745644" lon="7.251427">
        <ele>44.626971</ele>
        <time>2025-08-12T10:45:56.500Z</time>
      </trkpt>
      <trkpt lat="51.745656" lon="7.250635">
        <ele>44.915485</ele>
        <time>2025-08-12T10:46:03.189Z</time>
      </trkpt>
      <trkpt lat="51.745503" lon="7.249703">
        <ele>45.266625</ele>
        <time>2025-08-12T10:46:11.279Z</time>
      </trkpt>
      <trkpt lat="51.745508" lon="7.249562">
        <ele>45.318058</ele>
        <time>2025-08-12T10:46:12.491Z</time>
      </trkpt>
      <trkpt lat="51.745687" lon="7.248969">
        <ele>45.558313</ele>
        <time>2025-08-12T10:46:18.051Z</time>
      </trkpt>
      <trkpt lat="51.745879" lon="7.248289">
        <ele>45.564226</ele>
        <time>2025-08-12T10:46:24.090Z</time>
      </trkpt>
      <trkpt lat="51.746094" lon="7.247810">
        <ele>45.551560</ele>
        <time>2025-08-12T10:46:28.718Z</time>
      </trkpt>
      <trkpt lat="51.746204" lon="7.247672">
        <ele>45.546744</ele>
        <time>2025-08-12T10:46:30.416Z</time>
      </trkpt>
      <trkpt lat="51.747030" lon="7.246630">
        <ele>45.394874</ele>
        <time>2025-08-12T10:46:41.859Z</time>
      </trkpt>
      <trkpt lat="51.747571" lon="7.245404">
        <ele>44.772334</ele>
        <time>2025-08-12T10:46:51.319Z</time>
      </trkpt>
      <trkpt lat="51.747738" lon="7.244952">
        <ele>44.554682</ele>
        <time>2025-08-12T10:46:54.494Z</time>
      </trkpt>
      <trkpt lat="51.747911" lon="7.244668">
        <ele>44.389937</ele>
        <time>2025-08-12T10:46:56.987Z</time>
      </trkpt>
      <trkpt lat="51.748514" lon="7.244235">
        <ele>44.020241</ele>
        <time>2025-08-12T10:47:04.120Z</time>
      </trkpt>
      <trkpt lat="51.749242" lon="7.243793">
        <ele>43.601536</ele>
        <time>2025-08-12T10:47:12.336Z</time>
      </trkpt>
      <trkpt lat="51.749433" lon="7.243678">
        <ele>43.491796</ele>
        <time>2025-08-12T10:47:14.526Z</time>
      </trkpt>
      <trkpt lat="51.749417" lon="7.243442">
        <ele>43.412667</ele>
        <time>2025-08-12T10:47:16.099Z</time>
      </trkpt>
      <trkpt lat="51.749213" lon="7.243453">
        <ele>43.325517</ele>
        <time>2025-08-12T10:47:18.262Z</time>
      </trkpt>
      <trkpt lat="51.749204" lon="7.243452">
        <ele>43.323146</ele>
        <time>2025-08-12T10:47:18.355Z</time>
      </trkpt>
      <trkpt lat="51.748846" lon="7.243401">
        <ele>43.228669</ele>
        <time>2025-08-12T10:47:21.976Z</time>
      </trkpt>
      <trkpt lat="51.748220" lon="7.243187">
        <ele>43.060460</ele>
        <time>2025-08-12T10:47:28.367Z</time>
      </trkpt>
      <trkpt lat="51.747630" lon="7.242985">
        <ele>42.901914</ele>
        <time>2025-08-12T10:47:35.806Z</time>
      </trkpt>
      <trkpt lat="51.747411" lon="7.242894">
        <ele>43.021141</ele>
        <time>2025-08-12T10:47:39.003Z</time>
      </trkpt>
      <trkpt lat="51.747063" lon="7.242771">
        <ele>43.451718</ele>
        <time>2025-08-12T10:47:44.438Z</time>
      </trkpt>
      <trkpt lat="51.746739" lon="7.242623">
        <ele>43.858693</ele>
        <time>2025-08-12T10:47:49.985Z</time>
      </trkpt>
      <trkpt lat="51.746522" lon="7.242487">
        <ele>44.140032</ele>
        <time>2025-08-12T10:47:54.012Z</time>
      </trkpt>
      <trkpt lat="51.745912" lon="7.242103">
        <ele>44.931355</ele>
        <time>2025-08-12T10:48:04.986Z</time>
      </trkpt>
      <trkpt lat="51.745899" lon="7.242187">
        <ele>44.996151</ele>
        <time>2025-08-12T10:48:05.818Z</time>
      </trkpt>
      <trkpt lat="51.745463" lon="7.242043">
        <ele>45.425786</ele>
        <time>2025-08-12T10:48:12.748Z</time>
      </trkpt>
      <trkpt lat="51.745069" lon="7.242010">
        <ele>45.796351</ele>
        <time>2025-08-12T10:48:18.680Z</time>
      </trkpt>
      <trkpt lat="51.743048" lon="7.242432">
        <ele>47.072583</ele>
        <time>2025-08-12T10:48:47.589Z</time>
      </trkpt>
      <trkpt lat="51.742136" lon="7.242586">
        <ele>47.241624</ele>
        <time>2025-08-12T10:48:58.140Z</time>
      </trkpt>
      <trkpt lat="51.741293" lon="7.242605">
        <ele>46.815834</ele>
        <time>2025-08-12T10:49:06.763Z</time>
      </trkpt>
      <trkpt lat="51.741246" lon="7.242632">
        <ele>46.790641</ele>
        <time>2025-08-12T10:49:07.285Z</time>
      </trkpt>
      <trkpt lat="51.741223" lon="7.242691">
        <ele>46.768838</ele>
        <time>2025-08-12T10:49:07.710Z</time>
      </trkpt>
      <trkpt lat="51.741120" lon="7.242701">
        <ele>46.716725</ele>
        <time>2025-08-12T10:49:08.771Z</time>
      </trkpt>
      <trkpt lat="51.741031" lon="7.242707">
        <ele>46.671737</ele>
        <time>2025-08-12T10:49:09.670Z</time>
      </trkpt>
      <trkpt lat="51.741017" lon="7.242641">
        <ele>46.649920</ele>
        <time>2025-08-12T10:49:10.123Z</time>
      </trkpt>
      <trkpt lat="51.741016" lon="7.242470">
        <ele>46.596441</ele>
        <time>2025-08-12T10:49:11.202Z</time>
      </trkpt>
      <trkpt lat="51.741014" lon="7.242242">
        <ele>46.525131</ele>
        <time>2025-08-12T10:49:12.679Z</time>
      </trkpt>
      <trkpt lat="51.741101" lon="7.242233">
        <ele>46.481103</ele>
        <time>2025-08-12T10:49:13.628Z</time>
      </trkpt>
      <trkpt lat="51.741068" lon="7.241416">
        <ele>46.432881</ele>
        <time>2025-08-12T10:49:19.133Z</time>
      </trkpt>
      <trkpt lat="51.740899" lon="7.237068">
        <ele>46.774622</ele>
        <time>2025-08-12T10:49:53.078Z</time>
      </trkpt>
      <trkpt lat="51.740865" lon="7.236197">
        <ele>46.883333</ele>
        <time>2025-08-12T10:49:59.888Z</time>
      </trkpt>
      <trkpt lat="51.740653" lon="7.230739">
        <ele>47.221006</ele>
        <time>2025-08-12T10:50:41.489Z</time>
      </trkpt>
      <trkpt lat="51.740562" lon="7.228528">
        <ele>47.130609</ele>
        <time>2025-08-12T10:50:57.031Z</time>
      </trkpt>
      <trkpt lat="51.740477" lon="7.228536">
        <ele>47.123021</ele>
        <time>2025-08-12T10:50:58.007Z</time>
      </trkpt>
      <trkpt lat="51.740348" lon="7.225250">
        <ele>46.598499</ele>
        <time>2025-08-12T10:51:22.076Z</time>
      </trkpt>
      <trkpt lat="51.740321" lon="7.224075">
        <ele>45.671650</ele>
        <time>2025-08-12T10:51:29.001Z</time>
      </trkpt>
      <trkpt lat="51.740299" lon="7.223777">
        <ele>45.308435</ele>
        <time>2025-08-12T10:51:30.677Z</time>
      </trkpt>
      <trkpt lat="51.740243" lon="7.223203">
        <ele>44.605169</ele>
        <time>2025-08-12T10:51:33.796Z</time>
      </trkpt>
      <trkpt lat="51.740189" lon="7.222531">
        <ele>43.785046</ele>
        <time>2025-08-12T10:51:37.321Z</time>
      </trkpt>
      <trkpt lat="51.740100" lon="7.221398">
        <ele>42.633106</ele>
        <time>2025-08-12T10:51:43.253Z</time>
      </trkpt>
      <trkpt lat="51.740147" lon="7.220411">
        <ele>41.907718</ele>
        <time>2025-08-12T10:51:48.715Z</time>
      </trkpt>
      <trkpt lat="51.740236" lon="7.220421">
        <ele>41.802143</ele>
        <time>2025-08-12T10:51:49.552Z</time>
      </trkpt>
      <trkpt lat="51.740848" lon="7.214784">
        <ele>40.894516</ele>
        <time>2025-08-12T10:52:31.066Z</time>
      </trkpt>
      <trkpt lat="51.741221" lon="7.211411">
        <ele>41.021261</ele>
        <time>2025-08-12T10:52:58.670Z</time>
      </trkpt>
    </trkseg>
  </trk>
</gpx>